<?xml version="1.0" encoding="UTF-8" standalone="no" ?>
<gpx xmlns="http://www.topografix.com/GPX/1/1" xmlns:xsi="http://www.w3.org/2001/XMLSchema-instance" xsi:schemaLocation="http://www.topografix.com/GPX/1/1 http://www.topografix.com/GPX/1/1/gpx.xsd" version="1.1" creator="VisuGPX - https://www.visugpx.com">
  <metadata>
    <name>ambillou-23k</name>
  </metadata>
  <trk>
    <name><![CDATA[ambillou-20k]]></name>
    <extensions>
      <line xmlns="http://www.topografix.com/GPX/gpx_style/0/2">
        <color>0000FF</color>
        <width>4</width>
      </line>
    </extensions>
    <trkseg>
      <trkpt lat="47.45223" lon="0.44835">
        <ele>99.63</ele>
        <time>2020-10-29T09:29:39Z</time>
      </trkpt>
      <trkpt lat="47.45222" lon="0.44834">
        <ele>99.63</ele>
        <time>2020-10-29T09:29:40Z</time>
      </trkpt>
      <trkpt lat="47.45224" lon="0.44834">
        <ele>99.63</ele>
        <time>2020-10-29T09:30:01Z</time>
      </trkpt>
      <trkpt lat="47.45224" lon="0.44834">
        <ele>99.63</ele>
        <time>2020-10-29T09:30:14Z</time>
      </trkpt>
      <trkpt lat="47.45224" lon="0.44839">
        <ele>99.63</ele>
        <time>2020-10-29T09:30:18Z</time>
      </trkpt>
      <trkpt lat="47.45235" lon="0.44844">
        <ele>99.15</ele>
        <time>2020-10-29T09:30:29Z</time>
      </trkpt>
      <trkpt lat="47.45251" lon="0.44869">
        <ele>98.67</ele>
        <time>2020-10-29T09:30:47Z</time>
      </trkpt>
      <trkpt lat="47.45265" lon="0.44897">
        <ele>98.67</ele>
        <time>2020-10-29T09:31:05Z</time>
      </trkpt>
      <trkpt lat="47.45279" lon="0.44922">
        <ele>98.67</ele>
        <time>2020-10-29T09:31:23Z</time>
      </trkpt>
      <trkpt lat="47.45293" lon="0.44947">
        <ele>99.15</ele>
        <time>2020-10-29T09:31:40Z</time>
      </trkpt>
      <trkpt lat="47.45313" lon="0.4498">
        <ele>99.15</ele>
        <time>2020-10-29T09:31:59Z</time>
      </trkpt>
      <trkpt lat="47.45326" lon="0.45006">
        <ele>99.15</ele>
        <time>2020-10-29T09:32:16Z</time>
      </trkpt>
      <trkpt lat="47.45331" lon="0.45013">
        <ele>99.15</ele>
        <time>2020-10-29T09:32:20Z</time>
      </trkpt>
      <trkpt lat="47.4535" lon="0.45041">
        <ele>99.15</ele>
        <time>2020-10-29T09:32:40Z</time>
      </trkpt>
      <trkpt lat="47.4536" lon="0.45058">
        <ele>99.15</ele>
        <time>2020-10-29T09:32:53Z</time>
      </trkpt>
      <trkpt lat="47.45381" lon="0.45084">
        <ele>99.15</ele>
        <time>2020-10-29T09:33:09Z</time>
      </trkpt>
      <trkpt lat="47.45394" lon="0.45115">
        <ele>99.15</ele>
        <time>2020-10-29T09:33:26Z</time>
      </trkpt>
      <trkpt lat="47.45409" lon="0.4515">
        <ele>99.63</ele>
        <time>2020-10-29T09:33:45Z</time>
      </trkpt>
      <trkpt lat="47.45425" lon="0.45188">
        <ele>98.67</ele>
        <time>2020-10-29T09:34:05Z</time>
      </trkpt>
      <trkpt lat="47.4544" lon="0.45219">
        <ele>99.15</ele>
        <time>2020-10-29T09:34:24Z</time>
      </trkpt>
      <trkpt lat="47.45451" lon="0.45234">
        <ele>97.23</ele>
        <time>2020-10-29T09:34:35Z</time>
      </trkpt>
      <trkpt lat="47.45472" lon="0.45256">
        <ele>99.15</ele>
        <time>2020-10-29T09:34:54Z</time>
      </trkpt>
      <trkpt lat="47.45498" lon="0.45286">
        <ele>98.19</ele>
        <time>2020-10-29T09:35:17Z</time>
      </trkpt>
      <trkpt lat="47.45518" lon="0.45316">
        <ele>98.67</ele>
        <time>2020-10-29T09:35:37Z</time>
      </trkpt>
      <trkpt lat="47.45533" lon="0.45348">
        <ele>98.19</ele>
        <time>2020-10-29T09:35:56Z</time>
      </trkpt>
      <trkpt lat="47.45546" lon="0.45378">
        <ele>97.71</ele>
        <time>2020-10-29T09:36:14Z</time>
      </trkpt>
      <trkpt lat="47.45562" lon="0.45411">
        <ele>98.19</ele>
        <time>2020-10-29T09:36:34Z</time>
      </trkpt>
      <trkpt lat="47.45575" lon="0.4544">
        <ele>98.67</ele>
        <time>2020-10-29T09:36:52Z</time>
      </trkpt>
      <trkpt lat="47.45589" lon="0.45472">
        <ele>98.19</ele>
        <time>2020-10-29T09:37:09Z</time>
      </trkpt>
      <trkpt lat="47.456" lon="0.4551">
        <ele>99.15</ele>
        <time>2020-10-29T09:37:28Z</time>
      </trkpt>
      <trkpt lat="47.45613" lon="0.45555">
        <ele>98.67</ele>
        <time>2020-10-29T09:37:51Z</time>
      </trkpt>
      <trkpt lat="47.45622" lon="0.45585">
        <ele>98.67</ele>
        <time>2020-10-29T09:38:06Z</time>
      </trkpt>
      <trkpt lat="47.45629" lon="0.45615">
        <ele>98.67</ele>
        <time>2020-10-29T09:38:22Z</time>
      </trkpt>
      <trkpt lat="47.45631" lon="0.45622">
        <ele>98.19</ele>
        <time>2020-10-29T09:38:25Z</time>
      </trkpt>
      <trkpt lat="47.45631" lon="0.45638">
        <ele>98.67</ele>
        <time>2020-10-29T09:38:32Z</time>
      </trkpt>
      <trkpt lat="47.45637" lon="0.45666">
        <ele>98.19</ele>
        <time>2020-10-29T09:38:47Z</time>
      </trkpt>
      <trkpt lat="47.45639" lon="0.4569">
        <ele>98.19</ele>
        <time>2020-10-29T09:38:58Z</time>
      </trkpt>
      <trkpt lat="47.45642" lon="0.45707">
        <ele>98.19</ele>
        <time>2020-10-29T09:39:06Z</time>
      </trkpt>
      <trkpt lat="47.45656" lon="0.45736">
        <ele>98.19</ele>
        <time>2020-10-29T09:39:23Z</time>
      </trkpt>
      <trkpt lat="47.45671" lon="0.45774">
        <ele>98.19</ele>
        <time>2020-10-29T09:39:42Z</time>
      </trkpt>
      <trkpt lat="47.45683" lon="0.45815">
        <ele>96.75</ele>
        <time>2020-10-29T09:40:03Z</time>
      </trkpt>
      <trkpt lat="47.4569" lon="0.45862">
        <ele>96.27</ele>
        <time>2020-10-29T09:40:24Z</time>
      </trkpt>
      <trkpt lat="47.45695" lon="0.45893">
        <ele>96.27</ele>
        <time>2020-10-29T09:40:40Z</time>
      </trkpt>
      <trkpt lat="47.457" lon="0.45925">
        <ele>95.79</ele>
        <time>2020-10-29T09:40:55Z</time>
      </trkpt>
      <trkpt lat="47.45705" lon="0.45955">
        <ele>95.31</ele>
        <time>2020-10-29T09:41:10Z</time>
      </trkpt>
      <trkpt lat="47.45706" lon="0.45986">
        <ele>95.31</ele>
        <time>2020-10-29T09:41:26Z</time>
      </trkpt>
      <trkpt lat="47.45708" lon="0.46006">
        <ele>94.35</ele>
        <time>2020-10-29T09:41:36Z</time>
      </trkpt>
      <trkpt lat="47.45711" lon="0.46042">
        <ele>94.35</ele>
        <time>2020-10-29T09:41:54Z</time>
      </trkpt>
      <trkpt lat="47.45719" lon="0.46084">
        <ele>93.39</ele>
        <time>2020-10-29T09:42:15Z</time>
      </trkpt>
      <trkpt lat="47.45728" lon="0.46131">
        <ele>92.42</ele>
        <time>2020-10-29T09:42:33Z</time>
      </trkpt>
      <trkpt lat="47.45728" lon="0.46134">
        <ele>92.9</ele>
        <time>2020-10-29T09:42:34Z</time>
      </trkpt>
      <trkpt lat="47.45737" lon="0.46192">
        <ele>91.46</ele>
        <time>2020-10-29T09:42:59Z</time>
      </trkpt>
      <trkpt lat="47.45749" lon="0.4623">
        <ele>90.5</ele>
        <time>2020-10-29T09:43:18Z</time>
      </trkpt>
      <trkpt lat="47.45764" lon="0.46265">
        <ele>90.02</ele>
        <time>2020-10-29T09:43:36Z</time>
      </trkpt>
      <trkpt lat="47.45779" lon="0.463">
        <ele>89.06</ele>
        <time>2020-10-29T09:43:54Z</time>
      </trkpt>
      <trkpt lat="47.45791" lon="0.46337">
        <ele>88.58</ele>
        <time>2020-10-29T09:44:12Z</time>
      </trkpt>
      <trkpt lat="47.45801" lon="0.46376">
        <ele>87.14</ele>
        <time>2020-10-29T09:44:32Z</time>
      </trkpt>
      <trkpt lat="47.45811" lon="0.46408">
        <ele>86.18</ele>
        <time>2020-10-29T09:44:48Z</time>
      </trkpt>
      <trkpt lat="47.45824" lon="0.46444">
        <ele>85.69</ele>
        <time>2020-10-29T09:45:06Z</time>
      </trkpt>
      <trkpt lat="47.45832" lon="0.46475">
        <ele>84.73</ele>
        <time>2020-10-29T09:45:23Z</time>
      </trkpt>
      <trkpt lat="47.45837" lon="0.465">
        <ele>83.29</ele>
        <time>2020-10-29T09:45:37Z</time>
      </trkpt>
      <trkpt lat="47.45833" lon="0.46544">
        <ele>81.37</ele>
        <time>2020-10-29T09:45:56Z</time>
      </trkpt>
      <trkpt lat="47.45828" lon="0.46576">
        <ele>80.89</ele>
        <time>2020-10-29T09:46:14Z</time>
      </trkpt>
      <trkpt lat="47.4582" lon="0.46593">
        <ele>80.41</ele>
        <time>2020-10-29T09:46:23Z</time>
      </trkpt>
      <trkpt lat="47.45806" lon="0.46627">
        <ele>79.93</ele>
        <time>2020-10-29T09:46:41Z</time>
      </trkpt>
      <trkpt lat="47.45792" lon="0.46666">
        <ele>79.45</ele>
        <time>2020-10-29T09:46:59Z</time>
      </trkpt>
      <trkpt lat="47.45779" lon="0.467">
        <ele>79.45</ele>
        <time>2020-10-29T09:47:16Z</time>
      </trkpt>
      <trkpt lat="47.45768" lon="0.46728">
        <ele>80.41</ele>
        <time>2020-10-29T09:47:33Z</time>
      </trkpt>
      <trkpt lat="47.45762" lon="0.4675">
        <ele>80.89</ele>
        <time>2020-10-29T09:47:48Z</time>
      </trkpt>
      <trkpt lat="47.45749" lon="0.46781">
        <ele>82.33</ele>
        <time>2020-10-29T09:48:05Z</time>
      </trkpt>
      <trkpt lat="47.45739" lon="0.46808">
        <ele>83.29</ele>
        <time>2020-10-29T09:48:20Z</time>
      </trkpt>
      <trkpt lat="47.4573" lon="0.46842">
        <ele>83.77</ele>
        <time>2020-10-29T09:48:36Z</time>
      </trkpt>
      <trkpt lat="47.45724" lon="0.46855">
        <ele>83.77</ele>
        <time>2020-10-29T09:48:44Z</time>
      </trkpt>
      <trkpt lat="47.45721" lon="0.46866">
        <ele>83.77</ele>
        <time>2020-10-29T09:48:50Z</time>
      </trkpt>
      <trkpt lat="47.45712" lon="0.46892">
        <ele>83.77</ele>
        <time>2020-10-29T09:49:03Z</time>
      </trkpt>
      <trkpt lat="47.45699" lon="0.4693">
        <ele>84.73</ele>
        <time>2020-10-29T09:49:23Z</time>
      </trkpt>
      <trkpt lat="47.45686" lon="0.46968">
        <ele>85.69</ele>
        <time>2020-10-29T09:49:42Z</time>
      </trkpt>
      <trkpt lat="47.45677" lon="0.46998">
        <ele>85.69</ele>
        <time>2020-10-29T09:49:58Z</time>
      </trkpt>
      <trkpt lat="47.45671" lon="0.47023">
        <ele>85.21</ele>
        <time>2020-10-29T09:50:10Z</time>
      </trkpt>
      <trkpt lat="47.45671" lon="0.47045">
        <ele>85.21</ele>
        <time>2020-10-29T09:50:22Z</time>
      </trkpt>
      <trkpt lat="47.4567" lon="0.47096">
        <ele>84.73</ele>
        <time>2020-10-29T09:50:46Z</time>
      </trkpt>
      <trkpt lat="47.45651" lon="0.4711">
        <ele>84.25</ele>
        <time>2020-10-29T09:51:02Z</time>
      </trkpt>
      <trkpt lat="47.45621" lon="0.47116">
        <ele>84.73</ele>
        <time>2020-10-29T09:51:22Z</time>
      </trkpt>
      <trkpt lat="47.45594" lon="0.4713">
        <ele>84.73</ele>
        <time>2020-10-29T09:51:41Z</time>
      </trkpt>
      <trkpt lat="47.45583" lon="0.47169">
        <ele>84.25</ele>
        <time>2020-10-29T09:51:59Z</time>
      </trkpt>
      <trkpt lat="47.45569" lon="0.47212">
        <ele>83.29</ele>
        <time>2020-10-29T09:52:20Z</time>
      </trkpt>
      <trkpt lat="47.45555" lon="0.47251">
        <ele>82.33</ele>
        <time>2020-10-29T09:52:40Z</time>
      </trkpt>
      <trkpt lat="47.45537" lon="0.47291">
        <ele>81.85</ele>
        <time>2020-10-29T09:53:02Z</time>
      </trkpt>
      <trkpt lat="47.4552" lon="0.47331">
        <ele>81.37</ele>
        <time>2020-10-29T09:53:23Z</time>
      </trkpt>
      <trkpt lat="47.45507" lon="0.47364">
        <ele>79.93</ele>
        <time>2020-10-29T09:53:40Z</time>
      </trkpt>
      <trkpt lat="47.45489" lon="0.47402">
        <ele>78.48</ele>
        <time>2020-10-29T09:54:00Z</time>
      </trkpt>
      <trkpt lat="47.4548" lon="0.47427">
        <ele>78.48</ele>
        <time>2020-10-29T09:54:14Z</time>
      </trkpt>
      <trkpt lat="47.45462" lon="0.47459">
        <ele>78</ele>
        <time>2020-10-29T09:54:34Z</time>
      </trkpt>
      <trkpt lat="47.45442" lon="0.47484">
        <ele>78.97</ele>
        <time>2020-10-29T09:54:52Z</time>
      </trkpt>
      <trkpt lat="47.45424" lon="0.47504">
        <ele>81.37</ele>
        <time>2020-10-29T09:55:09Z</time>
      </trkpt>
      <trkpt lat="47.45407" lon="0.4753">
        <ele>82.81</ele>
        <time>2020-10-29T09:55:26Z</time>
      </trkpt>
      <trkpt lat="47.454" lon="0.47565">
        <ele>83.77</ele>
        <time>2020-10-29T09:55:43Z</time>
      </trkpt>
      <trkpt lat="47.45399" lon="0.47575">
        <ele>83.77</ele>
        <time>2020-10-29T09:55:48Z</time>
      </trkpt>
      <trkpt lat="47.45396" lon="0.47618">
        <ele>85.21</ele>
        <time>2020-10-29T09:56:08Z</time>
      </trkpt>
      <trkpt lat="47.45395" lon="0.47658">
        <ele>85.69</ele>
        <time>2020-10-29T09:56:26Z</time>
      </trkpt>
      <trkpt lat="47.45392" lon="0.47705">
        <ele>85.69</ele>
        <time>2020-10-29T09:56:47Z</time>
      </trkpt>
      <trkpt lat="47.45388" lon="0.47751">
        <ele>85.69</ele>
        <time>2020-10-29T09:57:08Z</time>
      </trkpt>
      <trkpt lat="47.45385" lon="0.47788">
        <ele>85.21</ele>
        <time>2020-10-29T09:57:24Z</time>
      </trkpt>
      <trkpt lat="47.45381" lon="0.47821">
        <ele>84.25</ele>
        <time>2020-10-29T09:57:41Z</time>
      </trkpt>
      <trkpt lat="47.45373" lon="0.47859">
        <ele>84.73</ele>
        <time>2020-10-29T09:58:00Z</time>
      </trkpt>
      <trkpt lat="47.45367" lon="0.4789">
        <ele>84.25</ele>
        <time>2020-10-29T09:58:16Z</time>
      </trkpt>
      <trkpt lat="47.45366" lon="0.47894">
        <ele>84.25</ele>
        <time>2020-10-29T09:58:27Z</time>
      </trkpt>
      <trkpt lat="47.45359" lon="0.47926">
        <ele>83.77</ele>
        <time>2020-10-29T09:58:44Z</time>
      </trkpt>
      <trkpt lat="47.45352" lon="0.47963">
        <ele>82.81</ele>
        <time>2020-10-29T09:59:03Z</time>
      </trkpt>
      <trkpt lat="47.4535" lon="0.48003">
        <ele>82.33</ele>
        <time>2020-10-29T09:59:20Z</time>
      </trkpt>
      <trkpt lat="47.45349" lon="0.4804">
        <ele>81.85</ele>
        <time>2020-10-29T09:59:37Z</time>
      </trkpt>
      <trkpt lat="47.45343" lon="0.48073">
        <ele>80.89</ele>
        <time>2020-10-29T09:59:54Z</time>
      </trkpt>
      <trkpt lat="47.4534" lon="0.48106">
        <ele>80.89</ele>
        <time>2020-10-29T10:00:09Z</time>
      </trkpt>
      <trkpt lat="47.4533" lon="0.48148">
        <ele>79.93</ele>
        <time>2020-10-29T10:00:29Z</time>
      </trkpt>
      <trkpt lat="47.45322" lon="0.4819">
        <ele>78.97</ele>
        <time>2020-10-29T10:00:49Z</time>
      </trkpt>
      <trkpt lat="47.45309" lon="0.48238">
        <ele>78.48</ele>
        <time>2020-10-29T10:01:13Z</time>
      </trkpt>
      <trkpt lat="47.45294" lon="0.48291">
        <ele>78</ele>
        <time>2020-10-29T10:01:38Z</time>
      </trkpt>
      <trkpt lat="47.45284" lon="0.48331">
        <ele>78</ele>
        <time>2020-10-29T10:01:57Z</time>
      </trkpt>
      <trkpt lat="47.45279" lon="0.4836">
        <ele>78</ele>
        <time>2020-10-29T10:02:13Z</time>
      </trkpt>
      <trkpt lat="47.45276" lon="0.48409">
        <ele>78</ele>
        <time>2020-10-29T10:02:33Z</time>
      </trkpt>
      <trkpt lat="47.45267" lon="0.48458">
        <ele>77.52</ele>
        <time>2020-10-29T10:02:55Z</time>
      </trkpt>
      <trkpt lat="47.45258" lon="0.485">
        <ele>77.52</ele>
        <time>2020-10-29T10:03:14Z</time>
      </trkpt>
      <trkpt lat="47.45248" lon="0.48546">
        <ele>78</ele>
        <time>2020-10-29T10:03:36Z</time>
      </trkpt>
      <trkpt lat="47.45235" lon="0.48599">
        <ele>77.52</ele>
        <time>2020-10-29T10:04:01Z</time>
      </trkpt>
      <trkpt lat="47.45224" lon="0.48644">
        <ele>77.52</ele>
        <time>2020-10-29T10:04:23Z</time>
      </trkpt>
      <trkpt lat="47.45217" lon="0.48671">
        <ele>77.52</ele>
        <time>2020-10-29T10:04:36Z</time>
      </trkpt>
      <trkpt lat="47.45225" lon="0.48671">
        <ele>77.04</ele>
        <time>2020-10-29T10:04:42Z</time>
      </trkpt>
      <trkpt lat="47.45255" lon="0.48646">
        <ele>77.04</ele>
        <time>2020-10-29T10:05:04Z</time>
      </trkpt>
      <trkpt lat="47.45289" lon="0.48621">
        <ele>77.52</ele>
        <time>2020-10-29T10:05:29Z</time>
      </trkpt>
      <trkpt lat="47.45316" lon="0.48603">
        <ele>77.52</ele>
        <time>2020-10-29T10:05:48Z</time>
      </trkpt>
      <trkpt lat="47.45346" lon="0.48585">
        <ele>76.56</ele>
        <time>2020-10-29T10:06:10Z</time>
      </trkpt>
      <trkpt lat="47.45373" lon="0.48569">
        <ele>75.12</ele>
        <time>2020-10-29T10:06:29Z</time>
      </trkpt>
      <trkpt lat="47.454" lon="0.48555">
        <ele>73.68</ele>
        <time>2020-10-29T10:06:48Z</time>
      </trkpt>
      <trkpt lat="47.45425" lon="0.48547">
        <ele>72.72</ele>
        <time>2020-10-29T10:07:04Z</time>
      </trkpt>
      <trkpt lat="47.45455" lon="0.48545">
        <ele>71.76</ele>
        <time>2020-10-29T10:07:24Z</time>
      </trkpt>
      <trkpt lat="47.45476" lon="0.48545">
        <ele>71.27</ele>
        <time>2020-10-29T10:07:38Z</time>
      </trkpt>
      <trkpt lat="47.45482" lon="0.48547">
        <ele>71.76</ele>
        <time>2020-10-29T10:07:42Z</time>
      </trkpt>
      <trkpt lat="47.45508" lon="0.48557">
        <ele>71.76</ele>
        <time>2020-10-29T10:08:00Z</time>
      </trkpt>
      <trkpt lat="47.45534" lon="0.48571">
        <ele>71.76</ele>
        <time>2020-10-29T10:08:18Z</time>
      </trkpt>
      <trkpt lat="47.45562" lon="0.48585">
        <ele>71.76</ele>
        <time>2020-10-29T10:08:38Z</time>
      </trkpt>
      <trkpt lat="47.45597" lon="0.48603">
        <ele>72.72</ele>
        <time>2020-10-29T10:09:03Z</time>
      </trkpt>
      <trkpt lat="47.45628" lon="0.48612">
        <ele>74.64</ele>
        <time>2020-10-29T10:09:24Z</time>
      </trkpt>
      <trkpt lat="47.45659" lon="0.48616">
        <ele>76.56</ele>
        <time>2020-10-29T10:09:44Z</time>
      </trkpt>
      <trkpt lat="47.45687" lon="0.48613">
        <ele>78</ele>
        <time>2020-10-29T10:10:04Z</time>
      </trkpt>
      <trkpt lat="47.45717" lon="0.48608">
        <ele>79.45</ele>
        <time>2020-10-29T10:10:24Z</time>
      </trkpt>
      <trkpt lat="47.45739" lon="0.48604">
        <ele>79.93</ele>
        <time>2020-10-29T10:10:40Z</time>
      </trkpt>
      <trkpt lat="47.45764" lon="0.48599">
        <ele>81.37</ele>
        <time>2020-10-29T10:10:58Z</time>
      </trkpt>
      <trkpt lat="47.45792" lon="0.48593">
        <ele>81.85</ele>
        <time>2020-10-29T10:11:16Z</time>
      </trkpt>
      <trkpt lat="47.45808" lon="0.48589">
        <ele>82.33</ele>
        <time>2020-10-29T10:11:28Z</time>
      </trkpt>
      <trkpt lat="47.45838" lon="0.48582">
        <ele>83.29</ele>
        <time>2020-10-29T10:11:48Z</time>
      </trkpt>
      <trkpt lat="47.45865" lon="0.48575">
        <ele>84.25</ele>
        <time>2020-10-29T10:12:06Z</time>
      </trkpt>
      <trkpt lat="47.45887" lon="0.48568">
        <ele>84.73</ele>
        <time>2020-10-29T10:12:23Z</time>
      </trkpt>
      <trkpt lat="47.45914" lon="0.48562">
        <ele>85.69</ele>
        <time>2020-10-29T10:12:42Z</time>
      </trkpt>
      <trkpt lat="47.45944" lon="0.48552">
        <ele>86.18</ele>
        <time>2020-10-29T10:13:02Z</time>
      </trkpt>
      <trkpt lat="47.45955" lon="0.48548">
        <ele>86.66</ele>
        <time>2020-10-29T10:13:16Z</time>
      </trkpt>
      <trkpt lat="47.45955" lon="0.48547">
        <ele>86.66</ele>
        <time>2020-10-29T10:13:19Z</time>
      </trkpt>
      <trkpt lat="47.4596" lon="0.48546">
        <ele>86.66</ele>
        <time>2020-10-29T10:13:23Z</time>
      </trkpt>
      <trkpt lat="47.45992" lon="0.48538">
        <ele>87.62</ele>
        <time>2020-10-29T10:13:44Z</time>
      </trkpt>
      <trkpt lat="47.46026" lon="0.48529">
        <ele>87.62</ele>
        <time>2020-10-29T10:14:06Z</time>
      </trkpt>
      <trkpt lat="47.46056" lon="0.48519">
        <ele>89.06</ele>
        <time>2020-10-29T10:14:27Z</time>
      </trkpt>
      <trkpt lat="47.46087" lon="0.48512">
        <ele>89.06</ele>
        <time>2020-10-29T10:14:46Z</time>
      </trkpt>
      <trkpt lat="47.4613" lon="0.48502">
        <ele>89.54</ele>
        <time>2020-10-29T10:15:13Z</time>
      </trkpt>
      <trkpt lat="47.46159" lon="0.48492">
        <ele>90.02</ele>
        <time>2020-10-29T10:15:33Z</time>
      </trkpt>
      <trkpt lat="47.46167" lon="0.48489">
        <ele>90.5</ele>
        <time>2020-10-29T10:15:39Z</time>
      </trkpt>
      <trkpt lat="47.46198" lon="0.48481">
        <ele>90.98</ele>
        <time>2020-10-29T10:16:00Z</time>
      </trkpt>
      <trkpt lat="47.46221" lon="0.48472">
        <ele>90.98</ele>
        <time>2020-10-29T10:16:17Z</time>
      </trkpt>
      <trkpt lat="47.46255" lon="0.48465">
        <ele>90.5</ele>
        <time>2020-10-29T10:16:39Z</time>
      </trkpt>
      <trkpt lat="47.46286" lon="0.48456">
        <ele>90.5</ele>
        <time>2020-10-29T10:17:00Z</time>
      </trkpt>
      <trkpt lat="47.46316" lon="0.48447">
        <ele>90.02</ele>
        <time>2020-10-29T10:17:20Z</time>
      </trkpt>
      <trkpt lat="47.46354" lon="0.48438">
        <ele>90.5</ele>
        <time>2020-10-29T10:17:43Z</time>
      </trkpt>
      <trkpt lat="47.46389" lon="0.48429">
        <ele>90.98</ele>
        <time>2020-10-29T10:18:07Z</time>
      </trkpt>
      <trkpt lat="47.4642" lon="0.48418">
        <ele>90.98</ele>
        <time>2020-10-29T10:18:28Z</time>
      </trkpt>
      <trkpt lat="47.46451" lon="0.48409">
        <ele>90.5</ele>
        <time>2020-10-29T10:18:48Z</time>
      </trkpt>
      <trkpt lat="47.46486" lon="0.484">
        <ele>90.5</ele>
        <time>2020-10-29T10:19:11Z</time>
      </trkpt>
      <trkpt lat="47.46513" lon="0.48392">
        <ele>89.54</ele>
        <time>2020-10-29T10:19:29Z</time>
      </trkpt>
      <trkpt lat="47.46545" lon="0.48384">
        <ele>89.54</ele>
        <time>2020-10-29T10:19:51Z</time>
      </trkpt>
      <trkpt lat="47.46577" lon="0.48376">
        <ele>89.54</ele>
        <time>2020-10-29T10:20:13Z</time>
      </trkpt>
      <trkpt lat="47.46614" lon="0.48369">
        <ele>89.54</ele>
        <time>2020-10-29T10:20:37Z</time>
      </trkpt>
      <trkpt lat="47.46633" lon="0.48365">
        <ele>89.54</ele>
        <time>2020-10-29T10:20:49Z</time>
      </trkpt>
      <trkpt lat="47.46642" lon="0.48371">
        <ele>89.54</ele>
        <time>2020-10-29T10:20:56Z</time>
      </trkpt>
      <trkpt lat="47.46645" lon="0.48375">
        <ele>89.54</ele>
        <time>2020-10-29T10:20:59Z</time>
      </trkpt>
      <trkpt lat="47.46645" lon="0.48384">
        <ele>89.54</ele>
        <time>2020-10-29T10:21:04Z</time>
      </trkpt>
      <trkpt lat="47.46636" lon="0.48434">
        <ele>89.54</ele>
        <time>2020-10-29T10:21:26Z</time>
      </trkpt>
      <trkpt lat="47.46639" lon="0.48469">
        <ele>89.54</ele>
        <time>2020-10-29T10:21:42Z</time>
      </trkpt>
      <trkpt lat="47.46661" lon="0.48498">
        <ele>90.02</ele>
        <time>2020-10-29T10:22:01Z</time>
      </trkpt>
      <trkpt lat="47.46687" lon="0.48534">
        <ele>90.5</ele>
        <time>2020-10-29T10:22:24Z</time>
      </trkpt>
      <trkpt lat="47.46709" lon="0.48563">
        <ele>90.98</ele>
        <time>2020-10-29T10:22:44Z</time>
      </trkpt>
      <trkpt lat="47.46733" lon="0.48598">
        <ele>91.46</ele>
        <time>2020-10-29T10:23:07Z</time>
      </trkpt>
      <trkpt lat="47.46756" lon="0.48631">
        <ele>92.42</ele>
        <time>2020-10-29T10:23:29Z</time>
      </trkpt>
      <trkpt lat="47.4677" lon="0.4865">
        <ele>92.9</ele>
        <time>2020-10-29T10:23:45Z</time>
      </trkpt>
      <trkpt lat="47.46788" lon="0.48676">
        <ele>93.39</ele>
        <time>2020-10-29T10:24:02Z</time>
      </trkpt>
      <trkpt lat="47.46806" lon="0.48702">
        <ele>93.87</ele>
        <time>2020-10-29T10:24:20Z</time>
      </trkpt>
      <trkpt lat="47.46824" lon="0.48734">
        <ele>94.35</ele>
        <time>2020-10-29T10:24:39Z</time>
      </trkpt>
      <trkpt lat="47.46825" lon="0.48735">
        <ele>94.35</ele>
        <time>2020-10-29T10:24:42Z</time>
      </trkpt>
      <trkpt lat="47.46826" lon="0.4874">
        <ele>94.35</ele>
        <time>2020-10-29T10:24:47Z</time>
      </trkpt>
      <trkpt lat="47.46847" lon="0.48763">
        <ele>94.35</ele>
        <time>2020-10-29T10:25:06Z</time>
      </trkpt>
      <trkpt lat="47.46866" lon="0.48775">
        <ele>95.31</ele>
        <time>2020-10-29T10:25:21Z</time>
      </trkpt>
      <trkpt lat="47.46889" lon="0.4879">
        <ele>95.31</ele>
        <time>2020-10-29T10:25:38Z</time>
      </trkpt>
      <trkpt lat="47.46912" lon="0.48805">
        <ele>96.27</ele>
        <time>2020-10-29T10:25:56Z</time>
      </trkpt>
      <trkpt lat="47.46934" lon="0.48821">
        <ele>96.27</ele>
        <time>2020-10-29T10:26:13Z</time>
      </trkpt>
      <trkpt lat="47.46963" lon="0.48835">
        <ele>96.75</ele>
        <time>2020-10-29T10:26:31Z</time>
      </trkpt>
      <trkpt lat="47.4697" lon="0.4884">
        <ele>96.75</ele>
        <time>2020-10-29T10:26:37Z</time>
      </trkpt>
      <trkpt lat="47.46973" lon="0.48844">
        <ele>97.23</ele>
        <time>2020-10-29T10:26:40Z</time>
      </trkpt>
      <trkpt lat="47.46978" lon="0.48856">
        <ele>96.75</ele>
        <time>2020-10-29T10:26:46Z</time>
      </trkpt>
      <trkpt lat="47.46969" lon="0.48881">
        <ele>95.79</ele>
        <time>2020-10-29T10:27:02Z</time>
      </trkpt>
      <trkpt lat="47.46951" lon="0.48911">
        <ele>96.27</ele>
        <time>2020-10-29T10:27:15Z</time>
      </trkpt>
      <trkpt lat="47.46948" lon="0.48911">
        <ele>96.27</ele>
        <time>2020-10-29T10:27:30Z</time>
      </trkpt>
      <trkpt lat="47.4695" lon="0.48913">
        <ele>95.79</ele>
        <time>2020-10-29T10:27:49Z</time>
      </trkpt>
      <trkpt lat="47.46948" lon="0.48927">
        <ele>96.27</ele>
        <time>2020-10-29T10:27:58Z</time>
      </trkpt>
      <trkpt lat="47.46947" lon="0.48931">
        <ele>95.79</ele>
        <time>2020-10-29T10:28:00Z</time>
      </trkpt>
      <trkpt lat="47.4694" lon="0.48941">
        <ele>95.31</ele>
        <time>2020-10-29T10:28:10Z</time>
      </trkpt>
      <trkpt lat="47.46936" lon="0.48951">
        <ele>95.79</ele>
        <time>2020-10-29T10:28:15Z</time>
      </trkpt>
      <trkpt lat="47.46928" lon="0.4899">
        <ele>95.79</ele>
        <time>2020-10-29T10:28:32Z</time>
      </trkpt>
      <trkpt lat="47.46924" lon="0.49018">
        <ele>95.31</ele>
        <time>2020-10-29T10:28:48Z</time>
      </trkpt>
      <trkpt lat="47.46919" lon="0.49061">
        <ele>94.83</ele>
        <time>2020-10-29T10:29:06Z</time>
      </trkpt>
      <trkpt lat="47.4692" lon="0.49075">
        <ele>94.83</ele>
        <time>2020-10-29T10:29:15Z</time>
      </trkpt>
      <trkpt lat="47.46918" lon="0.4912">
        <ele>94.35</ele>
        <time>2020-10-29T10:29:31Z</time>
      </trkpt>
      <trkpt lat="47.4692" lon="0.49145">
        <ele>93.87</ele>
        <time>2020-10-29T10:29:46Z</time>
      </trkpt>
      <trkpt lat="47.4692" lon="0.49184">
        <ele>93.87</ele>
        <time>2020-10-29T10:30:00Z</time>
      </trkpt>
      <trkpt lat="47.46922" lon="0.49213">
        <ele>93.39</ele>
        <time>2020-10-29T10:30:16Z</time>
      </trkpt>
      <trkpt lat="47.46925" lon="0.4925">
        <ele>93.87</ele>
        <time>2020-10-29T10:30:30Z</time>
      </trkpt>
      <trkpt lat="47.46932" lon="0.49277">
        <ele>94.35</ele>
        <time>2020-10-29T10:30:45Z</time>
      </trkpt>
      <trkpt lat="47.46937" lon="0.49321">
        <ele>95.31</ele>
        <time>2020-10-29T10:31:01Z</time>
      </trkpt>
      <trkpt lat="47.46944" lon="0.49339">
        <ele>95.31</ele>
        <time>2020-10-29T10:31:14Z</time>
      </trkpt>
      <trkpt lat="47.46948" lon="0.49363">
        <ele>95.79</ele>
        <time>2020-10-29T10:31:25Z</time>
      </trkpt>
      <trkpt lat="47.46958" lon="0.4939">
        <ele>95.31</ele>
        <time>2020-10-29T10:31:37Z</time>
      </trkpt>
      <trkpt lat="47.46969" lon="0.49407">
        <ele>95.31</ele>
        <time>2020-10-29T10:31:49Z</time>
      </trkpt>
      <trkpt lat="47.46975" lon="0.49409">
        <ele>95.31</ele>
        <time>2020-10-29T10:31:54Z</time>
      </trkpt>
      <trkpt lat="47.46986" lon="0.49414">
        <ele>95.79</ele>
        <time>2020-10-29T10:32:05Z</time>
      </trkpt>
      <trkpt lat="47.46998" lon="0.49418">
        <ele>95.79</ele>
        <time>2020-10-29T10:32:17Z</time>
      </trkpt>
      <trkpt lat="47.47" lon="0.4942">
        <ele>96.27</ele>
        <time>2020-10-29T10:32:33Z</time>
      </trkpt>
      <trkpt lat="47.47005" lon="0.49427">
        <ele>96.27</ele>
        <time>2020-10-29T10:32:50Z</time>
      </trkpt>
      <trkpt lat="47.47016" lon="0.49444">
        <ele>95.79</ele>
        <time>2020-10-29T10:33:02Z</time>
      </trkpt>
      <trkpt lat="47.47027" lon="0.49458">
        <ele>96.27</ele>
        <time>2020-10-29T10:33:13Z</time>
      </trkpt>
      <trkpt lat="47.4704" lon="0.49474">
        <ele>95.79</ele>
        <time>2020-10-29T10:33:25Z</time>
      </trkpt>
      <trkpt lat="47.47044" lon="0.49478">
        <ele>96.27</ele>
        <time>2020-10-29T10:33:41Z</time>
      </trkpt>
      <trkpt lat="47.47058" lon="0.49498">
        <ele>96.27</ele>
        <time>2020-10-29T10:33:55Z</time>
      </trkpt>
      <trkpt lat="47.47072" lon="0.49519">
        <ele>96.27</ele>
        <time>2020-10-29T10:34:07Z</time>
      </trkpt>
      <trkpt lat="47.47086" lon="0.49538">
        <ele>96.75</ele>
        <time>2020-10-29T10:34:20Z</time>
      </trkpt>
      <trkpt lat="47.47094" lon="0.4955">
        <ele>96.75</ele>
        <time>2020-10-29T10:34:32Z</time>
      </trkpt>
      <trkpt lat="47.47107" lon="0.49569">
        <ele>96.75</ele>
        <time>2020-10-29T10:34:45Z</time>
      </trkpt>
      <trkpt lat="47.4712" lon="0.49587">
        <ele>96.27</ele>
        <time>2020-10-29T10:34:57Z</time>
      </trkpt>
      <trkpt lat="47.47129" lon="0.49609">
        <ele>96.75</ele>
        <time>2020-10-29T10:35:10Z</time>
      </trkpt>
      <trkpt lat="47.47139" lon="0.49628">
        <ele>96.27</ele>
        <time>2020-10-29T10:35:19Z</time>
      </trkpt>
      <trkpt lat="47.47148" lon="0.49646">
        <ele>96.27</ele>
        <time>2020-10-29T10:35:31Z</time>
      </trkpt>
      <trkpt lat="47.47155" lon="0.4966">
        <ele>96.27</ele>
        <time>2020-10-29T10:35:42Z</time>
      </trkpt>
      <trkpt lat="47.47163" lon="0.49668">
        <ele>96.27</ele>
        <time>2020-10-29T10:35:47Z</time>
      </trkpt>
      <trkpt lat="47.47165" lon="0.49678">
        <ele>96.27</ele>
        <time>2020-10-29T10:36:02Z</time>
      </trkpt>
      <trkpt lat="47.47165" lon="0.4968">
        <ele>96.27</ele>
        <time>2020-10-29T10:36:04Z</time>
      </trkpt>
      <trkpt lat="47.47174" lon="0.49702">
        <ele>95.79</ele>
        <time>2020-10-29T10:36:16Z</time>
      </trkpt>
      <trkpt lat="47.47188" lon="0.49727">
        <ele>95.79</ele>
        <time>2020-10-29T10:36:31Z</time>
      </trkpt>
      <trkpt lat="47.47192" lon="0.49734">
        <ele>95.31</ele>
        <time>2020-10-29T10:36:44Z</time>
      </trkpt>
      <trkpt lat="47.47193" lon="0.49743">
        <ele>96.27</ele>
        <time>2020-10-29T10:36:55Z</time>
      </trkpt>
      <trkpt lat="47.47203" lon="0.49756">
        <ele>95.31</ele>
        <time>2020-10-29T10:37:06Z</time>
      </trkpt>
      <trkpt lat="47.47208" lon="0.49763">
        <ele>95.79</ele>
        <time>2020-10-29T10:37:10Z</time>
      </trkpt>
      <trkpt lat="47.47222" lon="0.49779">
        <ele>94.83</ele>
        <time>2020-10-29T10:37:24Z</time>
      </trkpt>
      <trkpt lat="47.47225" lon="0.49782">
        <ele>95.31</ele>
        <time>2020-10-29T10:37:33Z</time>
      </trkpt>
      <trkpt lat="47.47243" lon="0.4979">
        <ele>95.31</ele>
        <time>2020-10-29T10:37:46Z</time>
      </trkpt>
      <trkpt lat="47.47254" lon="0.49794">
        <ele>95.79</ele>
        <time>2020-10-29T10:37:54Z</time>
      </trkpt>
      <trkpt lat="47.47276" lon="0.49811">
        <ele>96.75</ele>
        <time>2020-10-29T10:38:11Z</time>
      </trkpt>
      <trkpt lat="47.47292" lon="0.49824">
        <ele>97.71</ele>
        <time>2020-10-29T10:38:24Z</time>
      </trkpt>
      <trkpt lat="47.47302" lon="0.49831">
        <ele>98.19</ele>
        <time>2020-10-29T10:38:36Z</time>
      </trkpt>
      <trkpt lat="47.47309" lon="0.49836">
        <ele>98.19</ele>
        <time>2020-10-29T10:38:42Z</time>
      </trkpt>
      <trkpt lat="47.47326" lon="0.49847">
        <ele>98.67</ele>
        <time>2020-10-29T10:38:55Z</time>
      </trkpt>
      <trkpt lat="47.47331" lon="0.49853">
        <ele>98.67</ele>
        <time>2020-10-29T10:39:01Z</time>
      </trkpt>
      <trkpt lat="47.4735" lon="0.49869">
        <ele>99.15</ele>
        <time>2020-10-29T10:39:17Z</time>
      </trkpt>
      <trkpt lat="47.47354" lon="0.49872">
        <ele>99.63</ele>
        <time>2020-10-29T10:39:20Z</time>
      </trkpt>
      <trkpt lat="47.47363" lon="0.49877">
        <ele>99.63</ele>
        <time>2020-10-29T10:39:25Z</time>
      </trkpt>
      <trkpt lat="47.47383" lon="0.49887">
        <ele>99.63</ele>
        <time>2020-10-29T10:39:40Z</time>
      </trkpt>
      <trkpt lat="47.47395" lon="0.49893">
        <ele>100.11</ele>
        <time>2020-10-29T10:39:51Z</time>
      </trkpt>
      <trkpt lat="47.47398" lon="0.49892">
        <ele>100.6</ele>
        <time>2020-10-29T10:40:10Z</time>
      </trkpt>
      <trkpt lat="47.47407" lon="0.49897">
        <ele>98.19</ele>
        <time>2020-10-29T10:47:37Z</time>
      </trkpt>
      <trkpt lat="47.47412" lon="0.49903">
        <ele>98.19</ele>
        <time>2020-10-29T10:48:04Z</time>
      </trkpt>
      <trkpt lat="47.47416" lon="0.49907">
        <ele>98.67</ele>
        <time>2020-10-29T10:48:10Z</time>
      </trkpt>
      <trkpt lat="47.47426" lon="0.49914">
        <ele>98.67</ele>
        <time>2020-10-29T10:48:19Z</time>
      </trkpt>
      <trkpt lat="47.47427" lon="0.49915">
        <ele>99.15</ele>
        <time>2020-10-29T10:48:22Z</time>
      </trkpt>
      <trkpt lat="47.47442" lon="0.49932">
        <ele>98.67</ele>
        <time>2020-10-29T10:48:35Z</time>
      </trkpt>
      <trkpt lat="47.47452" lon="0.49943">
        <ele>99.15</ele>
        <time>2020-10-29T10:48:46Z</time>
      </trkpt>
      <trkpt lat="47.47464" lon="0.49955">
        <ele>99.15</ele>
        <time>2020-10-29T10:48:57Z</time>
      </trkpt>
      <trkpt lat="47.47474" lon="0.49968">
        <ele>98.67</ele>
        <time>2020-10-29T10:49:06Z</time>
      </trkpt>
      <trkpt lat="47.47483" lon="0.49974">
        <ele>99.15</ele>
        <time>2020-10-29T10:49:15Z</time>
      </trkpt>
      <trkpt lat="47.47489" lon="0.4998">
        <ele>99.15</ele>
        <time>2020-10-29T10:49:19Z</time>
      </trkpt>
      <trkpt lat="47.475" lon="0.4999">
        <ele>98.67</ele>
        <time>2020-10-29T10:49:31Z</time>
      </trkpt>
      <trkpt lat="47.47513" lon="0.50001">
        <ele>98.19</ele>
        <time>2020-10-29T10:49:41Z</time>
      </trkpt>
      <trkpt lat="47.4752" lon="0.50009">
        <ele>98.19</ele>
        <time>2020-10-29T10:49:51Z</time>
      </trkpt>
      <trkpt lat="47.4753" lon="0.50016">
        <ele>97.71</ele>
        <time>2020-10-29T10:50:01Z</time>
      </trkpt>
      <trkpt lat="47.47531" lon="0.50016">
        <ele>97.71</ele>
        <time>2020-10-29T10:50:02Z</time>
      </trkpt>
      <trkpt lat="47.47545" lon="0.50011">
        <ele>98.19</ele>
        <time>2020-10-29T10:50:14Z</time>
      </trkpt>
      <trkpt lat="47.47564" lon="0.50004">
        <ele>98.19</ele>
        <time>2020-10-29T10:50:25Z</time>
      </trkpt>
      <trkpt lat="47.4758" lon="0.5">
        <ele>98.67</ele>
        <time>2020-10-29T10:50:38Z</time>
      </trkpt>
      <trkpt lat="47.47597" lon="0.50002">
        <ele>98.67</ele>
        <time>2020-10-29T10:50:51Z</time>
      </trkpt>
      <trkpt lat="47.47613" lon="0.50002">
        <ele>98.67</ele>
        <time>2020-10-29T10:51:03Z</time>
      </trkpt>
      <trkpt lat="47.47625" lon="0.49999">
        <ele>98.19</ele>
        <time>2020-10-29T10:51:14Z</time>
      </trkpt>
      <trkpt lat="47.47625" lon="0.49991">
        <ele>98.19</ele>
        <time>2020-10-29T10:51:27Z</time>
      </trkpt>
      <trkpt lat="47.47637" lon="0.49989">
        <ele>98.67</ele>
        <time>2020-10-29T10:51:42Z</time>
      </trkpt>
      <trkpt lat="47.47654" lon="0.49976">
        <ele>99.15</ele>
        <time>2020-10-29T10:51:57Z</time>
      </trkpt>
      <trkpt lat="47.47664" lon="0.49963">
        <ele>98.67</ele>
        <time>2020-10-29T10:52:09Z</time>
      </trkpt>
      <trkpt lat="47.47678" lon="0.49952">
        <ele>99.15</ele>
        <time>2020-10-29T10:52:22Z</time>
      </trkpt>
      <trkpt lat="47.47682" lon="0.49949">
        <ele>99.15</ele>
        <time>2020-10-29T10:52:26Z</time>
      </trkpt>
      <trkpt lat="47.47697" lon="0.49934">
        <ele>99.15</ele>
        <time>2020-10-29T10:52:41Z</time>
      </trkpt>
      <trkpt lat="47.47712" lon="0.49923">
        <ele>100.11</ele>
        <time>2020-10-29T10:52:55Z</time>
      </trkpt>
      <trkpt lat="47.47726" lon="0.49912">
        <ele>100.11</ele>
        <time>2020-10-29T10:53:07Z</time>
      </trkpt>
      <trkpt lat="47.47739" lon="0.499">
        <ele>101.08</ele>
        <time>2020-10-29T10:53:18Z</time>
      </trkpt>
      <trkpt lat="47.47755" lon="0.49886">
        <ele>101.56</ele>
        <time>2020-10-29T10:53:32Z</time>
      </trkpt>
      <trkpt lat="47.47768" lon="0.49877">
        <ele>101.56</ele>
        <time>2020-10-29T10:53:44Z</time>
      </trkpt>
      <trkpt lat="47.47769" lon="0.49872">
        <ele>101.56</ele>
        <time>2020-10-29T10:53:48Z</time>
      </trkpt>
      <trkpt lat="47.47761" lon="0.49852">
        <ele>101.56</ele>
        <time>2020-10-29T10:55:53Z</time>
      </trkpt>
      <trkpt lat="47.47754" lon="0.49835">
        <ele>102.52</ele>
        <time>2020-10-29T10:56:08Z</time>
      </trkpt>
      <trkpt lat="47.47752" lon="0.49829">
        <ele>103</ele>
        <time>2020-10-29T10:56:12Z</time>
      </trkpt>
      <trkpt lat="47.47742" lon="0.49806">
        <ele>103</ele>
        <time>2020-10-29T10:56:26Z</time>
      </trkpt>
      <trkpt lat="47.47739" lon="0.49798">
        <ele>103</ele>
        <time>2020-10-29T10:56:30Z</time>
      </trkpt>
      <trkpt lat="47.47731" lon="0.4977">
        <ele>103</ele>
        <time>2020-10-29T10:56:45Z</time>
      </trkpt>
      <trkpt lat="47.47732" lon="0.49764">
        <ele>103.48</ele>
        <time>2020-10-29T10:56:49Z</time>
      </trkpt>
      <trkpt lat="47.47742" lon="0.4974">
        <ele>103.96</ele>
        <time>2020-10-29T10:57:04Z</time>
      </trkpt>
      <trkpt lat="47.47751" lon="0.49719">
        <ele>103.96</ele>
        <time>2020-10-29T10:57:16Z</time>
      </trkpt>
      <trkpt lat="47.47762" lon="0.49685">
        <ele>104.44</ele>
        <time>2020-10-29T10:57:35Z</time>
      </trkpt>
      <trkpt lat="47.47773" lon="0.49653">
        <ele>104.92</ele>
        <time>2020-10-29T10:57:52Z</time>
      </trkpt>
      <trkpt lat="47.47785" lon="0.49621">
        <ele>105.4</ele>
        <time>2020-10-29T10:58:09Z</time>
      </trkpt>
      <trkpt lat="47.47786" lon="0.49609">
        <ele>105.4</ele>
        <time>2020-10-29T10:58:24Z</time>
      </trkpt>
      <trkpt lat="47.478" lon="0.49583">
        <ele>105.88</ele>
        <time>2020-10-29T10:58:41Z</time>
      </trkpt>
      <trkpt lat="47.47801" lon="0.49577">
        <ele>105.88</ele>
        <time>2020-10-29T10:58:44Z</time>
      </trkpt>
      <trkpt lat="47.47808" lon="0.49547">
        <ele>106.36</ele>
        <time>2020-10-29T10:59:01Z</time>
      </trkpt>
      <trkpt lat="47.47809" lon="0.49545">
        <ele>106.36</ele>
        <time>2020-10-29T10:59:02Z</time>
      </trkpt>
      <trkpt lat="47.47814" lon="0.49505">
        <ele>106.36</ele>
        <time>2020-10-29T10:59:22Z</time>
      </trkpt>
      <trkpt lat="47.47812" lon="0.49499">
        <ele>105.88</ele>
        <time>2020-10-29T11:00:17Z</time>
      </trkpt>
      <trkpt lat="47.4782" lon="0.49469">
        <ele>106.36</ele>
        <time>2020-10-29T11:00:34Z</time>
      </trkpt>
      <trkpt lat="47.47818" lon="0.49455">
        <ele>105.88</ele>
        <time>2020-10-29T11:00:50Z</time>
      </trkpt>
      <trkpt lat="47.47819" lon="0.49456">
        <ele>105.88</ele>
        <time>2020-10-29T11:01:21Z</time>
      </trkpt>
      <trkpt lat="47.47826" lon="0.49436">
        <ele>106.36</ele>
        <time>2020-10-29T11:01:40Z</time>
      </trkpt>
      <trkpt lat="47.47832" lon="0.49399">
        <ele>106.36</ele>
        <time>2020-10-29T11:01:59Z</time>
      </trkpt>
      <trkpt lat="47.47839" lon="0.49366">
        <ele>105.88</ele>
        <time>2020-10-29T11:02:17Z</time>
      </trkpt>
      <trkpt lat="47.47843" lon="0.49338">
        <ele>106.36</ele>
        <time>2020-10-29T11:02:31Z</time>
      </trkpt>
      <trkpt lat="47.47851" lon="0.49307">
        <ele>105.88</ele>
        <time>2020-10-29T11:02:47Z</time>
      </trkpt>
      <trkpt lat="47.47858" lon="0.49272">
        <ele>106.36</ele>
        <time>2020-10-29T11:03:06Z</time>
      </trkpt>
      <trkpt lat="47.47863" lon="0.49236">
        <ele>106.36</ele>
        <time>2020-10-29T11:03:25Z</time>
      </trkpt>
      <trkpt lat="47.47869" lon="0.49199">
        <ele>105.88</ele>
        <time>2020-10-29T11:03:45Z</time>
      </trkpt>
      <trkpt lat="47.47874" lon="0.49171">
        <ele>107.32</ele>
        <time>2020-10-29T11:03:59Z</time>
      </trkpt>
      <trkpt lat="47.47873" lon="0.49139">
        <ele>107.32</ele>
        <time>2020-10-29T11:04:15Z</time>
      </trkpt>
      <trkpt lat="47.47873" lon="0.49109">
        <ele>107.32</ele>
        <time>2020-10-29T11:04:30Z</time>
      </trkpt>
      <trkpt lat="47.47875" lon="0.49082">
        <ele>107.32</ele>
        <time>2020-10-29T11:04:44Z</time>
      </trkpt>
      <trkpt lat="47.47877" lon="0.4905">
        <ele>107.81</ele>
        <time>2020-10-29T11:04:59Z</time>
      </trkpt>
      <trkpt lat="47.47883" lon="0.49014">
        <ele>108.29</ele>
        <time>2020-10-29T11:05:16Z</time>
      </trkpt>
      <trkpt lat="47.47885" lon="0.48986">
        <ele>108.77</ele>
        <time>2020-10-29T11:05:31Z</time>
      </trkpt>
      <trkpt lat="47.47886" lon="0.48966">
        <ele>108.77</ele>
        <time>2020-10-29T11:05:43Z</time>
      </trkpt>
      <trkpt lat="47.47887" lon="0.48929">
        <ele>109.73</ele>
        <time>2020-10-29T11:06:00Z</time>
      </trkpt>
      <trkpt lat="47.47889" lon="0.48898">
        <ele>110.21</ele>
        <time>2020-10-29T11:06:16Z</time>
      </trkpt>
      <trkpt lat="47.4789" lon="0.48869">
        <ele>109.73</ele>
        <time>2020-10-29T11:06:30Z</time>
      </trkpt>
      <trkpt lat="47.47894" lon="0.48833">
        <ele>110.69</ele>
        <time>2020-10-29T11:06:47Z</time>
      </trkpt>
      <trkpt lat="47.47894" lon="0.48826">
        <ele>110.21</ele>
        <time>2020-10-29T11:06:50Z</time>
      </trkpt>
      <trkpt lat="47.47898" lon="0.48802">
        <ele>110.69</ele>
        <time>2020-10-29T11:07:04Z</time>
      </trkpt>
      <trkpt lat="47.47899" lon="0.48802">
        <ele>111.17</ele>
        <time>2020-10-29T11:07:16Z</time>
      </trkpt>
      <trkpt lat="47.47896" lon="0.48803">
        <ele>110.69</ele>
        <time>2020-10-29T11:07:40Z</time>
      </trkpt>
      <trkpt lat="47.479" lon="0.48797">
        <ele>110.69</ele>
        <time>2020-10-29T11:08:05Z</time>
      </trkpt>
      <trkpt lat="47.47901" lon="0.48767">
        <ele>112.61</ele>
        <time>2020-10-29T11:08:22Z</time>
      </trkpt>
      <trkpt lat="47.47903" lon="0.4874">
        <ele>111.17</ele>
        <time>2020-10-29T11:08:35Z</time>
      </trkpt>
      <trkpt lat="47.47907" lon="0.48718">
        <ele>111.65</ele>
        <time>2020-10-29T11:08:48Z</time>
      </trkpt>
      <trkpt lat="47.47906" lon="0.48714">
        <ele>111.65</ele>
        <time>2020-10-29T11:08:51Z</time>
      </trkpt>
      <trkpt lat="47.47906" lon="0.48687">
        <ele>112.13</ele>
        <time>2020-10-29T11:09:04Z</time>
      </trkpt>
      <trkpt lat="47.47907" lon="0.48668">
        <ele>112.13</ele>
        <time>2020-10-29T11:09:17Z</time>
      </trkpt>
      <trkpt lat="47.47922" lon="0.48657">
        <ele>115.01</ele>
        <time>2020-10-29T11:14:45Z</time>
      </trkpt>
      <trkpt lat="47.47928" lon="0.48651">
        <ele>115.01</ele>
        <time>2020-10-29T11:15:00Z</time>
      </trkpt>
      <trkpt lat="47.47929" lon="0.48648">
        <ele>115.5</ele>
        <time>2020-10-29T11:15:03Z</time>
      </trkpt>
      <trkpt lat="47.47938" lon="0.48629">
        <ele>116.46</ele>
        <time>2020-10-29T11:15:20Z</time>
      </trkpt>
      <trkpt lat="47.47934" lon="0.48613">
        <ele>115.98</ele>
        <time>2020-10-29T11:15:34Z</time>
      </trkpt>
      <trkpt lat="47.47931" lon="0.486">
        <ele>116.94</ele>
        <time>2020-10-29T11:15:43Z</time>
      </trkpt>
      <trkpt lat="47.47933" lon="0.4859">
        <ele>116.46</ele>
        <time>2020-10-29T11:15:48Z</time>
      </trkpt>
      <trkpt lat="47.47926" lon="0.48559">
        <ele>116.46</ele>
        <time>2020-10-29T11:16:05Z</time>
      </trkpt>
      <trkpt lat="47.47925" lon="0.48532">
        <ele>116.46</ele>
        <time>2020-10-29T11:16:19Z</time>
      </trkpt>
      <trkpt lat="47.47924" lon="0.48525">
        <ele>116.94</ele>
        <time>2020-10-29T11:16:22Z</time>
      </trkpt>
      <trkpt lat="47.47924" lon="0.48497">
        <ele>116.46</ele>
        <time>2020-10-29T11:16:38Z</time>
      </trkpt>
      <trkpt lat="47.47937" lon="0.48478">
        <ele>116.94</ele>
        <time>2020-10-29T11:16:44Z</time>
      </trkpt>
      <trkpt lat="47.47938" lon="0.48449">
        <ele>116.94</ele>
        <time>2020-10-29T11:17:00Z</time>
      </trkpt>
      <trkpt lat="47.47934" lon="0.48432">
        <ele>117.42</ele>
        <time>2020-10-29T11:17:08Z</time>
      </trkpt>
      <trkpt lat="47.47933" lon="0.48409">
        <ele>117.42</ele>
        <time>2020-10-29T11:17:24Z</time>
      </trkpt>
      <trkpt lat="47.47953" lon="0.48366">
        <ele>117.42</ele>
        <time>2020-10-29T11:17:38Z</time>
      </trkpt>
      <trkpt lat="47.47953" lon="0.48364">
        <ele>117.9</ele>
        <time>2020-10-29T11:17:39Z</time>
      </trkpt>
      <trkpt lat="47.47961" lon="0.48349">
        <ele>117.9</ele>
        <time>2020-10-29T11:17:53Z</time>
      </trkpt>
      <trkpt lat="47.47963" lon="0.48344">
        <ele>117.9</ele>
        <time>2020-10-29T11:17:57Z</time>
      </trkpt>
      <trkpt lat="47.47971" lon="0.48323">
        <ele>118.38</ele>
        <time>2020-10-29T11:18:14Z</time>
      </trkpt>
      <trkpt lat="47.47966" lon="0.4831">
        <ele>118.38</ele>
        <time>2020-10-29T11:18:27Z</time>
      </trkpt>
      <trkpt lat="47.47966" lon="0.48293">
        <ele>118.38</ele>
        <time>2020-10-29T11:18:40Z</time>
      </trkpt>
      <trkpt lat="47.4797" lon="0.48267">
        <ele>118.38</ele>
        <time>2020-10-29T11:18:56Z</time>
      </trkpt>
      <trkpt lat="47.47976" lon="0.48236">
        <ele>118.86</ele>
        <time>2020-10-29T11:19:12Z</time>
      </trkpt>
      <trkpt lat="47.47973" lon="0.48209">
        <ele>118.38</ele>
        <time>2020-10-29T11:19:26Z</time>
      </trkpt>
      <trkpt lat="47.47978" lon="0.48186">
        <ele>118.38</ele>
        <time>2020-10-29T11:19:40Z</time>
      </trkpt>
      <trkpt lat="47.47979" lon="0.48184">
        <ele>118.38</ele>
        <time>2020-10-29T11:19:42Z</time>
      </trkpt>
      <trkpt lat="47.47976" lon="0.48177">
        <ele>118.86</ele>
        <time>2020-10-29T11:19:46Z</time>
      </trkpt>
      <trkpt lat="47.47976" lon="0.48174">
        <ele>118.86</ele>
        <time>2020-10-29T11:19:48Z</time>
      </trkpt>
      <trkpt lat="47.47975" lon="0.48142">
        <ele>118.86</ele>
        <time>2020-10-29T11:20:02Z</time>
      </trkpt>
      <trkpt lat="47.47971" lon="0.48107">
        <ele>118.86</ele>
        <time>2020-10-29T11:20:16Z</time>
      </trkpt>
      <trkpt lat="47.4798" lon="0.48076">
        <ele>118.86</ele>
        <time>2020-10-29T11:20:33Z</time>
      </trkpt>
      <trkpt lat="47.47984" lon="0.48046">
        <ele>118.86</ele>
        <time>2020-10-29T11:20:48Z</time>
      </trkpt>
      <trkpt lat="47.47998" lon="0.48011">
        <ele>118.86</ele>
        <time>2020-10-29T11:21:06Z</time>
      </trkpt>
      <trkpt lat="47.47998" lon="0.47969">
        <ele>119.34</ele>
        <time>2020-10-29T11:21:23Z</time>
      </trkpt>
      <trkpt lat="47.48021" lon="0.47933">
        <ele>119.82</ele>
        <time>2020-10-29T11:21:34Z</time>
      </trkpt>
      <trkpt lat="47.48026" lon="0.4792">
        <ele>119.34</ele>
        <time>2020-10-29T11:21:49Z</time>
      </trkpt>
      <trkpt lat="47.48026" lon="0.47899">
        <ele>119.82</ele>
        <time>2020-10-29T11:22:09Z</time>
      </trkpt>
      <trkpt lat="47.48023" lon="0.47878">
        <ele>119.82</ele>
        <time>2020-10-29T11:22:25Z</time>
      </trkpt>
      <trkpt lat="47.48022" lon="0.47855">
        <ele>119.82</ele>
        <time>2020-10-29T11:22:41Z</time>
      </trkpt>
      <trkpt lat="47.48025" lon="0.47826">
        <ele>120.78</ele>
        <time>2020-10-29T11:22:58Z</time>
      </trkpt>
      <trkpt lat="47.48027" lon="0.47799">
        <ele>121.26</ele>
        <time>2020-10-29T11:23:13Z</time>
      </trkpt>
      <trkpt lat="47.48029" lon="0.47781">
        <ele>121.26</ele>
        <time>2020-10-29T11:23:27Z</time>
      </trkpt>
      <trkpt lat="47.48037" lon="0.4775">
        <ele>121.74</ele>
        <time>2020-10-29T11:23:45Z</time>
      </trkpt>
      <trkpt lat="47.48045" lon="0.47728">
        <ele>121.26</ele>
        <time>2020-10-29T11:24:00Z</time>
      </trkpt>
      <trkpt lat="47.48071" lon="0.4769">
        <ele>122.22</ele>
        <time>2020-10-29T11:24:35Z</time>
      </trkpt>
      <trkpt lat="47.48077" lon="0.47678">
        <ele>122.71</ele>
        <time>2020-10-29T11:25:02Z</time>
      </trkpt>
      <trkpt lat="47.48078" lon="0.47676">
        <ele>123.19</ele>
        <time>2020-10-29T11:25:31Z</time>
      </trkpt>
      <trkpt lat="47.48085" lon="0.47667">
        <ele>123.19</ele>
        <time>2020-10-29T11:26:01Z</time>
      </trkpt>
      <trkpt lat="47.48088" lon="0.47658">
        <ele>123.67</ele>
        <time>2020-10-29T11:30:02Z</time>
      </trkpt>
      <trkpt lat="47.48089" lon="0.47656">
        <ele>125.11</ele>
        <time>2020-10-29T11:30:05Z</time>
      </trkpt>
      <trkpt lat="47.48096" lon="0.47632">
        <ele>124.15</ele>
        <time>2020-10-29T11:30:20Z</time>
      </trkpt>
      <trkpt lat="47.48105" lon="0.47604">
        <ele>123.19</ele>
        <time>2020-10-29T11:30:36Z</time>
      </trkpt>
      <trkpt lat="47.48115" lon="0.47581">
        <ele>123.19</ele>
        <time>2020-10-29T11:30:51Z</time>
      </trkpt>
      <trkpt lat="47.4812" lon="0.47563">
        <ele>122.22</ele>
        <time>2020-10-29T11:31:05Z</time>
      </trkpt>
      <trkpt lat="47.48123" lon="0.47535">
        <ele>121.26</ele>
        <time>2020-10-29T11:31:22Z</time>
      </trkpt>
      <trkpt lat="47.4812" lon="0.47516">
        <ele>120.78</ele>
        <time>2020-10-29T11:31:36Z</time>
      </trkpt>
      <trkpt lat="47.4812" lon="0.47497">
        <ele>120.3</ele>
        <time>2020-10-29T11:31:50Z</time>
      </trkpt>
      <trkpt lat="47.48118" lon="0.47483">
        <ele>119.34</ele>
        <time>2020-10-29T11:32:01Z</time>
      </trkpt>
      <trkpt lat="47.48116" lon="0.47468">
        <ele>118.86</ele>
        <time>2020-10-29T11:32:09Z</time>
      </trkpt>
      <trkpt lat="47.48123" lon="0.47437">
        <ele>118.38</ele>
        <time>2020-10-29T11:32:26Z</time>
      </trkpt>
      <trkpt lat="47.48133" lon="0.47396">
        <ele>117.42</ele>
        <time>2020-10-29T11:32:43Z</time>
      </trkpt>
      <trkpt lat="47.48135" lon="0.47375">
        <ele>117.42</ele>
        <time>2020-10-29T11:32:57Z</time>
      </trkpt>
      <trkpt lat="47.48142" lon="0.47344">
        <ele>116.94</ele>
        <time>2020-10-29T11:33:11Z</time>
      </trkpt>
      <trkpt lat="47.48143" lon="0.47334">
        <ele>117.42</ele>
        <time>2020-10-29T11:33:15Z</time>
      </trkpt>
      <trkpt lat="47.48149" lon="0.47323">
        <ele>116.94</ele>
        <time>2020-10-29T11:33:23Z</time>
      </trkpt>
      <trkpt lat="47.48154" lon="0.47296">
        <ele>117.42</ele>
        <time>2020-10-29T11:33:38Z</time>
      </trkpt>
      <trkpt lat="47.48154" lon="0.47287">
        <ele>116.94</ele>
        <time>2020-10-29T11:33:44Z</time>
      </trkpt>
      <trkpt lat="47.48162" lon="0.47241">
        <ele>117.9</ele>
        <time>2020-10-29T11:34:02Z</time>
      </trkpt>
      <trkpt lat="47.48168" lon="0.472">
        <ele>118.86</ele>
        <time>2020-10-29T11:34:18Z</time>
      </trkpt>
      <trkpt lat="47.48171" lon="0.4717">
        <ele>119.34</ele>
        <time>2020-10-29T11:34:36Z</time>
      </trkpt>
      <trkpt lat="47.4817" lon="0.47132">
        <ele>120.3</ele>
        <time>2020-10-29T11:34:55Z</time>
      </trkpt>
      <trkpt lat="47.48178" lon="0.4709">
        <ele>121.26</ele>
        <time>2020-10-29T11:35:14Z</time>
      </trkpt>
      <trkpt lat="47.48184" lon="0.47059">
        <ele>121.74</ele>
        <time>2020-10-29T11:35:30Z</time>
      </trkpt>
      <trkpt lat="47.48185" lon="0.47023">
        <ele>122.71</ele>
        <time>2020-10-29T11:35:48Z</time>
      </trkpt>
      <trkpt lat="47.4819" lon="0.46987">
        <ele>123.19</ele>
        <time>2020-10-29T11:36:06Z</time>
      </trkpt>
      <trkpt lat="47.48192" lon="0.46958">
        <ele>123.67</ele>
        <time>2020-10-29T11:36:20Z</time>
      </trkpt>
      <trkpt lat="47.48192" lon="0.46956">
        <ele>123.67</ele>
        <time>2020-10-29T11:36:21Z</time>
      </trkpt>
      <trkpt lat="47.48191" lon="0.46937">
        <ele>123.67</ele>
        <time>2020-10-29T11:36:32Z</time>
      </trkpt>
      <trkpt lat="47.48194" lon="0.46905">
        <ele>124.15</ele>
        <time>2020-10-29T11:36:47Z</time>
      </trkpt>
      <trkpt lat="47.48212" lon="0.46852">
        <ele>124.63</ele>
        <time>2020-10-29T11:36:55Z</time>
      </trkpt>
      <trkpt lat="47.48197" lon="0.46823">
        <ele>124.63</ele>
        <time>2020-10-29T11:37:12Z</time>
      </trkpt>
      <trkpt lat="47.48189" lon="0.46804">
        <ele>124.63</ele>
        <time>2020-10-29T11:37:26Z</time>
      </trkpt>
      <trkpt lat="47.48186" lon="0.46799">
        <ele>124.63</ele>
        <time>2020-10-29T11:37:30Z</time>
      </trkpt>
      <trkpt lat="47.48168" lon="0.46774">
        <ele>124.15</ele>
        <time>2020-10-29T11:37:49Z</time>
      </trkpt>
      <trkpt lat="47.48161" lon="0.46767">
        <ele>124.15</ele>
        <time>2020-10-29T11:37:53Z</time>
      </trkpt>
      <trkpt lat="47.48157" lon="0.46761">
        <ele>124.15</ele>
        <time>2020-10-29T11:37:58Z</time>
      </trkpt>
      <trkpt lat="47.48142" lon="0.46734">
        <ele>123.67</ele>
        <time>2020-10-29T11:38:16Z</time>
      </trkpt>
      <trkpt lat="47.48134" lon="0.46712">
        <ele>124.63</ele>
        <time>2020-10-29T11:38:31Z</time>
      </trkpt>
      <trkpt lat="47.48134" lon="0.46711">
        <ele>124.63</ele>
        <time>2020-10-29T11:38:32Z</time>
      </trkpt>
      <trkpt lat="47.48121" lon="0.46682">
        <ele>125.11</ele>
        <time>2020-10-29T11:38:49Z</time>
      </trkpt>
      <trkpt lat="47.48105" lon="0.46654">
        <ele>125.11</ele>
        <time>2020-10-29T11:39:07Z</time>
      </trkpt>
      <trkpt lat="47.4809" lon="0.46632">
        <ele>125.59</ele>
        <time>2020-10-29T11:39:23Z</time>
      </trkpt>
      <trkpt lat="47.48058" lon="0.46608">
        <ele>126.07</ele>
        <time>2020-10-29T11:39:37Z</time>
      </trkpt>
      <trkpt lat="47.48053" lon="0.46593">
        <ele>125.59</ele>
        <time>2020-10-29T11:39:50Z</time>
      </trkpt>
      <trkpt lat="47.48046" lon="0.46562">
        <ele>125.59</ele>
        <time>2020-10-29T11:40:07Z</time>
      </trkpt>
      <trkpt lat="47.48038" lon="0.46556">
        <ele>123.19</ele>
        <time>2020-10-29T11:46:20Z</time>
      </trkpt>
      <trkpt lat="47.48035" lon="0.46554">
        <ele>124.15</ele>
        <time>2020-10-29T11:46:26Z</time>
      </trkpt>
      <trkpt lat="47.48032" lon="0.46543">
        <ele>124.15</ele>
        <time>2020-10-29T11:46:32Z</time>
      </trkpt>
      <trkpt lat="47.48024" lon="0.46515">
        <ele>123.67</ele>
        <time>2020-10-29T11:46:47Z</time>
      </trkpt>
      <trkpt lat="47.48023" lon="0.46512">
        <ele>124.15</ele>
        <time>2020-10-29T11:46:49Z</time>
      </trkpt>
      <trkpt lat="47.48019" lon="0.46488">
        <ele>123.19</ele>
        <time>2020-10-29T11:47:03Z</time>
      </trkpt>
      <trkpt lat="47.48008" lon="0.46454">
        <ele>123.67</ele>
        <time>2020-10-29T11:47:22Z</time>
      </trkpt>
      <trkpt lat="47.47996" lon="0.46403">
        <ele>122.71</ele>
        <time>2020-10-29T11:47:47Z</time>
      </trkpt>
      <trkpt lat="47.47986" lon="0.46352">
        <ele>124.15</ele>
        <time>2020-10-29T11:48:13Z</time>
      </trkpt>
      <trkpt lat="47.47973" lon="0.46296">
        <ele>123.67</ele>
        <time>2020-10-29T11:48:40Z</time>
      </trkpt>
      <trkpt lat="47.47964" lon="0.46242">
        <ele>116.46</ele>
        <time>2020-10-29T12:08:52Z</time>
      </trkpt>
      <trkpt lat="47.47968" lon="0.46212">
        <ele>115.98</ele>
        <time>2020-10-29T12:09:08Z</time>
      </trkpt>
      <trkpt lat="47.47969" lon="0.46181">
        <ele>115.98</ele>
        <time>2020-10-29T12:09:25Z</time>
      </trkpt>
      <trkpt lat="47.4797" lon="0.46139">
        <ele>117.42</ele>
        <time>2020-10-29T12:09:48Z</time>
      </trkpt>
      <trkpt lat="47.47972" lon="0.46095">
        <ele>116.94</ele>
        <time>2020-10-29T12:10:12Z</time>
      </trkpt>
      <trkpt lat="47.47977" lon="0.46039">
        <ele>117.9</ele>
        <time>2020-10-29T12:10:40Z</time>
      </trkpt>
      <trkpt lat="47.47982" lon="0.45991">
        <ele>117.42</ele>
        <time>2020-10-29T12:11:01Z</time>
      </trkpt>
      <trkpt lat="47.4798" lon="0.45935">
        <ele>117.9</ele>
        <time>2020-10-29T12:11:26Z</time>
      </trkpt>
      <trkpt lat="47.47989" lon="0.45891">
        <ele>118.38</ele>
        <time>2020-10-29T12:11:47Z</time>
      </trkpt>
      <trkpt lat="47.48001" lon="0.45841">
        <ele>119.34</ele>
        <time>2020-10-29T12:12:13Z</time>
      </trkpt>
      <trkpt lat="47.48009" lon="0.45789">
        <ele>118.86</ele>
        <time>2020-10-29T12:12:35Z</time>
      </trkpt>
      <trkpt lat="47.48012" lon="0.45746">
        <ele>119.34</ele>
        <time>2020-10-29T12:12:57Z</time>
      </trkpt>
      <trkpt lat="47.48021" lon="0.45717">
        <ele>118.38</ele>
        <time>2020-10-29T12:13:16Z</time>
      </trkpt>
      <trkpt lat="47.48029" lon="0.45691">
        <ele>119.34</ele>
        <time>2020-10-29T12:13:32Z</time>
      </trkpt>
      <trkpt lat="47.48038" lon="0.45661">
        <ele>119.34</ele>
        <time>2020-10-29T12:13:49Z</time>
      </trkpt>
      <trkpt lat="47.48048" lon="0.45635">
        <ele>119.82</ele>
        <time>2020-10-29T12:14:03Z</time>
      </trkpt>
      <trkpt lat="47.48052" lon="0.4562">
        <ele>118.86</ele>
        <time>2020-10-29T12:14:11Z</time>
      </trkpt>
      <trkpt lat="47.48055" lon="0.45606">
        <ele>119.82</ele>
        <time>2020-10-29T12:14:18Z</time>
      </trkpt>
      <trkpt lat="47.48066" lon="0.45577">
        <ele>120.3</ele>
        <time>2020-10-29T12:14:35Z</time>
      </trkpt>
      <trkpt lat="47.48066" lon="0.45577">
        <ele>118.86</ele>
        <time>2020-10-29T12:14:39Z</time>
      </trkpt>
      <trkpt lat="47.48076" lon="0.45554">
        <ele>119.82</ele>
        <time>2020-10-29T12:14:52Z</time>
      </trkpt>
      <trkpt lat="47.48085" lon="0.45532">
        <ele>119.34</ele>
        <time>2020-10-29T12:15:07Z</time>
      </trkpt>
      <trkpt lat="47.48094" lon="0.45511">
        <ele>118.86</ele>
        <time>2020-10-29T12:15:23Z</time>
      </trkpt>
      <trkpt lat="47.48107" lon="0.45484">
        <ele>119.34</ele>
        <time>2020-10-29T12:15:42Z</time>
      </trkpt>
      <trkpt lat="47.48122" lon="0.45463">
        <ele>117.9</ele>
        <time>2020-10-29T12:15:55Z</time>
      </trkpt>
      <trkpt lat="47.48137" lon="0.45439">
        <ele>118.38</ele>
        <time>2020-10-29T12:16:10Z</time>
      </trkpt>
      <trkpt lat="47.48153" lon="0.45413">
        <ele>118.38</ele>
        <time>2020-10-29T12:16:26Z</time>
      </trkpt>
      <trkpt lat="47.4816" lon="0.45403">
        <ele>117.9</ele>
        <time>2020-10-29T12:16:33Z</time>
      </trkpt>
      <trkpt lat="47.48175" lon="0.4538">
        <ele>118.38</ele>
        <time>2020-10-29T12:16:48Z</time>
      </trkpt>
      <trkpt lat="47.48177" lon="0.45378">
        <ele>117.9</ele>
        <time>2020-10-29T12:16:50Z</time>
      </trkpt>
      <trkpt lat="47.48189" lon="0.45367">
        <ele>116.94</ele>
        <time>2020-10-29T12:17:05Z</time>
      </trkpt>
      <trkpt lat="47.48195" lon="0.45362">
        <ele>116.94</ele>
        <time>2020-10-29T12:17:20Z</time>
      </trkpt>
      <trkpt lat="47.48212" lon="0.45329">
        <ele>116.94</ele>
        <time>2020-10-29T12:17:41Z</time>
      </trkpt>
      <trkpt lat="47.48243" lon="0.45298">
        <ele>116.46</ele>
        <time>2020-10-29T12:18:06Z</time>
      </trkpt>
      <trkpt lat="47.48248" lon="0.45288">
        <ele>115.98</ele>
        <time>2020-10-29T12:18:12Z</time>
      </trkpt>
      <trkpt lat="47.48263" lon="0.45272">
        <ele>116.46</ele>
        <time>2020-10-29T12:18:33Z</time>
      </trkpt>
      <trkpt lat="47.48284" lon="0.45253">
        <ele>115.5</ele>
        <time>2020-10-29T12:18:54Z</time>
      </trkpt>
      <trkpt lat="47.48305" lon="0.45239">
        <ele>115.98</ele>
        <time>2020-10-29T12:19:12Z</time>
      </trkpt>
      <trkpt lat="47.48312" lon="0.4524">
        <ele>115.5</ele>
        <time>2020-10-29T12:19:16Z</time>
      </trkpt>
      <trkpt lat="47.48346" lon="0.45226">
        <ele>115.98</ele>
        <time>2020-10-29T12:19:41Z</time>
      </trkpt>
      <trkpt lat="47.48381" lon="0.45211">
        <ele>115.5</ele>
        <time>2020-10-29T12:20:04Z</time>
      </trkpt>
      <trkpt lat="47.48382" lon="0.45211">
        <ele>115.01</ele>
        <time>2020-10-29T12:20:05Z</time>
      </trkpt>
      <trkpt lat="47.48409" lon="0.4519">
        <ele>116.46</ele>
        <time>2020-10-29T12:20:30Z</time>
      </trkpt>
      <trkpt lat="47.48431" lon="0.45161">
        <ele>115.98</ele>
        <time>2020-10-29T12:20:53Z</time>
      </trkpt>
      <trkpt lat="47.48452" lon="0.45137">
        <ele>115.98</ele>
        <time>2020-10-29T12:21:14Z</time>
      </trkpt>
      <trkpt lat="47.48497" lon="0.45121">
        <ele>116.46</ele>
        <time>2020-10-29T12:21:37Z</time>
      </trkpt>
      <trkpt lat="47.48494" lon="0.45115">
        <ele>116.94</ele>
        <time>2020-10-29T12:21:39Z</time>
      </trkpt>
      <trkpt lat="47.48493" lon="0.45102">
        <ele>115.98</ele>
        <time>2020-10-29T12:21:43Z</time>
      </trkpt>
      <trkpt lat="47.48511" lon="0.4507">
        <ele>116.46</ele>
        <time>2020-10-29T12:22:05Z</time>
      </trkpt>
      <trkpt lat="47.48512" lon="0.45065">
        <ele>115.98</ele>
        <time>2020-10-29T12:23:05Z</time>
      </trkpt>
      <trkpt lat="47.48514" lon="0.45049">
        <ele>115.98</ele>
        <time>2020-10-29T12:23:14Z</time>
      </trkpt>
      <trkpt lat="47.48532" lon="0.45012">
        <ele>115.98</ele>
        <time>2020-10-29T12:23:40Z</time>
      </trkpt>
      <trkpt lat="47.48531" lon="0.44999">
        <ele>116.46</ele>
        <time>2020-10-29T12:23:46Z</time>
      </trkpt>
      <trkpt lat="47.48531" lon="0.4496">
        <ele>115.98</ele>
        <time>2020-10-29T12:23:58Z</time>
      </trkpt>
      <trkpt lat="47.48534" lon="0.44937">
        <ele>115.5</ele>
        <time>2020-10-29T12:24:12Z</time>
      </trkpt>
      <trkpt lat="47.48535" lon="0.44936">
        <ele>115.5</ele>
        <time>2020-10-29T12:24:13Z</time>
      </trkpt>
      <trkpt lat="47.48545" lon="0.44902">
        <ele>115.01</ele>
        <time>2020-10-29T12:24:32Z</time>
      </trkpt>
      <trkpt lat="47.48552" lon="0.44867">
        <ele>115.5</ele>
        <time>2020-10-29T12:24:49Z</time>
      </trkpt>
      <trkpt lat="47.4856" lon="0.44834">
        <ele>114.53</ele>
        <time>2020-10-29T12:25:05Z</time>
      </trkpt>
      <trkpt lat="47.48561" lon="0.44829">
        <ele>114.53</ele>
        <time>2020-10-29T12:25:07Z</time>
      </trkpt>
      <trkpt lat="47.48564" lon="0.4482">
        <ele>115.01</ele>
        <time>2020-10-29T12:25:11Z</time>
      </trkpt>
      <trkpt lat="47.48562" lon="0.4481">
        <ele>115.5</ele>
        <time>2020-10-29T12:25:15Z</time>
      </trkpt>
      <trkpt lat="47.48561" lon="0.4478">
        <ele>115.5</ele>
        <time>2020-10-29T12:25:32Z</time>
      </trkpt>
      <trkpt lat="47.48563" lon="0.44778">
        <ele>115.98</ele>
        <time>2020-10-29T12:25:35Z</time>
      </trkpt>
      <trkpt lat="47.48576" lon="0.44768">
        <ele>115.98</ele>
        <time>2020-10-29T12:25:52Z</time>
      </trkpt>
      <trkpt lat="47.4858" lon="0.44763">
        <ele>115.98</ele>
        <time>2020-10-29T12:26:07Z</time>
      </trkpt>
      <trkpt lat="47.48586" lon="0.44757">
        <ele>116.46</ele>
        <time>2020-10-29T12:30:30Z</time>
      </trkpt>
      <trkpt lat="47.48595" lon="0.44726">
        <ele>115.98</ele>
        <time>2020-10-29T12:30:47Z</time>
      </trkpt>
      <trkpt lat="47.48601" lon="0.44705">
        <ele>115.5</ele>
        <time>2020-10-29T12:30:59Z</time>
      </trkpt>
      <trkpt lat="47.48604" lon="0.447">
        <ele>115.98</ele>
        <time>2020-10-29T12:31:03Z</time>
      </trkpt>
      <trkpt lat="47.48612" lon="0.44666">
        <ele>115.5</ele>
        <time>2020-10-29T12:31:20Z</time>
      </trkpt>
      <trkpt lat="47.48625" lon="0.44634">
        <ele>115.01</ele>
        <time>2020-10-29T12:31:39Z</time>
      </trkpt>
      <trkpt lat="47.48636" lon="0.44601">
        <ele>115.01</ele>
        <time>2020-10-29T12:31:58Z</time>
      </trkpt>
      <trkpt lat="47.48646" lon="0.44565">
        <ele>115.01</ele>
        <time>2020-10-29T12:32:15Z</time>
      </trkpt>
      <trkpt lat="47.48657" lon="0.44528">
        <ele>114.05</ele>
        <time>2020-10-29T12:32:34Z</time>
      </trkpt>
      <trkpt lat="47.48669" lon="0.44486">
        <ele>114.05</ele>
        <time>2020-10-29T12:32:55Z</time>
      </trkpt>
      <trkpt lat="47.48679" lon="0.44451">
        <ele>114.05</ele>
        <time>2020-10-29T12:33:13Z</time>
      </trkpt>
      <trkpt lat="47.4869" lon="0.44419">
        <ele>113.57</ele>
        <time>2020-10-29T12:33:30Z</time>
      </trkpt>
      <trkpt lat="47.48701" lon="0.44381">
        <ele>113.09</ele>
        <time>2020-10-29T12:33:49Z</time>
      </trkpt>
      <trkpt lat="47.48708" lon="0.44353">
        <ele>113.09</ele>
        <time>2020-10-29T12:34:04Z</time>
      </trkpt>
      <trkpt lat="47.48721" lon="0.44312">
        <ele>112.61</ele>
        <time>2020-10-29T12:34:25Z</time>
      </trkpt>
      <trkpt lat="47.4873" lon="0.44282">
        <ele>112.13</ele>
        <time>2020-10-29T12:34:40Z</time>
      </trkpt>
      <trkpt lat="47.4874" lon="0.44248">
        <ele>111.65</ele>
        <time>2020-10-29T12:34:57Z</time>
      </trkpt>
      <trkpt lat="47.48748" lon="0.44222">
        <ele>111.17</ele>
        <time>2020-10-29T12:35:10Z</time>
      </trkpt>
      <trkpt lat="47.48757" lon="0.44189">
        <ele>111.17</ele>
        <time>2020-10-29T12:35:28Z</time>
      </trkpt>
      <trkpt lat="47.48767" lon="0.44154">
        <ele>110.69</ele>
        <time>2020-10-29T12:35:47Z</time>
      </trkpt>
      <trkpt lat="47.48775" lon="0.44131">
        <ele>110.21</ele>
        <time>2020-10-29T12:36:01Z</time>
      </trkpt>
      <trkpt lat="47.48788" lon="0.44092">
        <ele>110.21</ele>
        <time>2020-10-29T12:36:24Z</time>
      </trkpt>
      <trkpt lat="47.48806" lon="0.44035">
        <ele>108.77</ele>
        <time>2020-10-29T12:36:53Z</time>
      </trkpt>
      <trkpt lat="47.48819" lon="0.43987">
        <ele>108.77</ele>
        <time>2020-10-29T12:37:18Z</time>
      </trkpt>
      <trkpt lat="47.48836" lon="0.43933">
        <ele>107.81</ele>
        <time>2020-10-29T12:37:46Z</time>
      </trkpt>
      <trkpt lat="47.4885" lon="0.43885">
        <ele>106.84</ele>
        <time>2020-10-29T12:38:10Z</time>
      </trkpt>
      <trkpt lat="47.48857" lon="0.43869">
        <ele>107.32</ele>
        <time>2020-10-29T12:38:26Z</time>
      </trkpt>
      <trkpt lat="47.48857" lon="0.43868">
        <ele>107.32</ele>
        <time>2020-10-29T12:38:32Z</time>
      </trkpt>
      <trkpt lat="47.48867" lon="0.4386">
        <ele>107.32</ele>
        <time>2020-10-29T12:38:40Z</time>
      </trkpt>
      <trkpt lat="47.48904" lon="0.43844">
        <ele>107.32</ele>
        <time>2020-10-29T12:39:07Z</time>
      </trkpt>
      <trkpt lat="47.48934" lon="0.43832">
        <ele>107.32</ele>
        <time>2020-10-29T12:39:28Z</time>
      </trkpt>
      <trkpt lat="47.48954" lon="0.4382">
        <ele>107.81</ele>
        <time>2020-10-29T12:39:49Z</time>
      </trkpt>
      <trkpt lat="47.48979" lon="0.43811">
        <ele>108.29</ele>
        <time>2020-10-29T12:40:06Z</time>
      </trkpt>
      <trkpt lat="47.49001" lon="0.43796">
        <ele>107.32</ele>
        <time>2020-10-29T12:40:23Z</time>
      </trkpt>
      <trkpt lat="47.49004" lon="0.43792">
        <ele>107.32</ele>
        <time>2020-10-29T12:40:33Z</time>
      </trkpt>
      <trkpt lat="47.49019" lon="0.43787">
        <ele>107.81</ele>
        <time>2020-10-29T12:40:55Z</time>
      </trkpt>
      <trkpt lat="47.49033" lon="0.43782">
        <ele>107.32</ele>
        <time>2020-10-29T12:41:17Z</time>
      </trkpt>
      <trkpt lat="47.49071" lon="0.43767">
        <ele>105.88</ele>
        <time>2020-10-29T12:41:43Z</time>
      </trkpt>
      <trkpt lat="47.49095" lon="0.4375">
        <ele>106.36</ele>
        <time>2020-10-29T12:42:03Z</time>
      </trkpt>
      <trkpt lat="47.49111" lon="0.43739">
        <ele>105.88</ele>
        <time>2020-10-29T12:42:24Z</time>
      </trkpt>
      <trkpt lat="47.49145" lon="0.43727">
        <ele>105.88</ele>
        <time>2020-10-29T12:42:52Z</time>
      </trkpt>
      <trkpt lat="47.49168" lon="0.43718">
        <ele>105.88</ele>
        <time>2020-10-29T12:43:11Z</time>
      </trkpt>
      <trkpt lat="47.49172" lon="0.4372">
        <ele>105.88</ele>
        <time>2020-10-29T12:43:26Z</time>
      </trkpt>
      <trkpt lat="47.49193" lon="0.43717">
        <ele>104.92</ele>
        <time>2020-10-29T12:43:45Z</time>
      </trkpt>
      <trkpt lat="47.49206" lon="0.43695">
        <ele>104.92</ele>
        <time>2020-10-29T12:44:06Z</time>
      </trkpt>
      <trkpt lat="47.49282" lon="0.43647">
        <ele>104.44</ele>
        <time>2020-10-29T12:44:45Z</time>
      </trkpt>
      <trkpt lat="47.49281" lon="0.43647">
        <ele>104.44</ele>
        <time>2020-10-29T12:44:46Z</time>
      </trkpt>
      <trkpt lat="47.4929" lon="0.43628">
        <ele>103.96</ele>
        <time>2020-10-29T12:45:02Z</time>
      </trkpt>
      <trkpt lat="47.49304" lon="0.43598">
        <ele>103</ele>
        <time>2020-10-29T12:45:20Z</time>
      </trkpt>
      <trkpt lat="47.49317" lon="0.43565">
        <ele>103.48</ele>
        <time>2020-10-29T12:45:37Z</time>
      </trkpt>
      <trkpt lat="47.49332" lon="0.43528">
        <ele>103.48</ele>
        <time>2020-10-29T12:45:57Z</time>
      </trkpt>
      <trkpt lat="47.4935" lon="0.4349">
        <ele>103.96</ele>
        <time>2020-10-29T12:46:18Z</time>
      </trkpt>
      <trkpt lat="47.49365" lon="0.4345">
        <ele>103.96</ele>
        <time>2020-10-29T12:46:39Z</time>
      </trkpt>
      <trkpt lat="47.49374" lon="0.43428">
        <ele>104.44</ele>
        <time>2020-10-29T12:46:55Z</time>
      </trkpt>
      <trkpt lat="47.4938" lon="0.43422">
        <ele>104.44</ele>
        <time>2020-10-29T12:47:04Z</time>
      </trkpt>
      <trkpt lat="47.49401" lon="0.43405">
        <ele>104.44</ele>
        <time>2020-10-29T12:47:23Z</time>
      </trkpt>
      <trkpt lat="47.49424" lon="0.43381">
        <ele>104.92</ele>
        <time>2020-10-29T12:47:42Z</time>
      </trkpt>
      <trkpt lat="47.49439" lon="0.43373">
        <ele>104.92</ele>
        <time>2020-10-29T12:48:01Z</time>
      </trkpt>
      <trkpt lat="47.49446" lon="0.43363">
        <ele>104.92</ele>
        <time>2020-10-29T12:48:24Z</time>
      </trkpt>
      <trkpt lat="47.49449" lon="0.43361">
        <ele>104.92</ele>
        <time>2020-10-29T12:48:27Z</time>
      </trkpt>
      <trkpt lat="47.49451" lon="0.43361">
        <ele>104.92</ele>
        <time>2020-10-29T12:48:29Z</time>
      </trkpt>
      <trkpt lat="47.49471" lon="0.4334">
        <ele>105.4</ele>
        <time>2020-10-29T12:48:48Z</time>
      </trkpt>
      <trkpt lat="47.49494" lon="0.43317">
        <ele>105.4</ele>
        <time>2020-10-29T12:49:09Z</time>
      </trkpt>
      <trkpt lat="47.49519" lon="0.43294">
        <ele>105.4</ele>
        <time>2020-10-29T12:49:30Z</time>
      </trkpt>
      <trkpt lat="47.49545" lon="0.4327">
        <ele>105.88</ele>
        <time>2020-10-29T12:49:51Z</time>
      </trkpt>
      <trkpt lat="47.49567" lon="0.43249">
        <ele>106.36</ele>
        <time>2020-10-29T12:50:10Z</time>
      </trkpt>
      <trkpt lat="47.49587" lon="0.43234">
        <ele>106.84</ele>
        <time>2020-10-29T12:50:31Z</time>
      </trkpt>
      <trkpt lat="47.496" lon="0.4322">
        <ele>106.36</ele>
        <time>2020-10-29T12:50:44Z</time>
      </trkpt>
      <trkpt lat="47.4962" lon="0.43201">
        <ele>107.32</ele>
        <time>2020-10-29T12:51:01Z</time>
      </trkpt>
      <trkpt lat="47.49639" lon="0.43184">
        <ele>107.32</ele>
        <time>2020-10-29T12:51:16Z</time>
      </trkpt>
      <trkpt lat="47.49643" lon="0.43179">
        <ele>107.81</ele>
        <time>2020-10-29T12:51:20Z</time>
      </trkpt>
      <trkpt lat="47.49646" lon="0.43176">
        <ele>108.29</ele>
        <time>2020-10-29T12:51:23Z</time>
      </trkpt>
      <trkpt lat="47.49655" lon="0.43168">
        <ele>107.81</ele>
        <time>2020-10-29T12:51:30Z</time>
      </trkpt>
      <trkpt lat="47.4966" lon="0.43163">
        <ele>107.81</ele>
        <time>2020-10-29T12:51:39Z</time>
      </trkpt>
      <trkpt lat="47.49687" lon="0.43138">
        <ele>108.29</ele>
        <time>2020-10-29T12:52:02Z</time>
      </trkpt>
      <trkpt lat="47.4971" lon="0.43111">
        <ele>108.77</ele>
        <time>2020-10-29T12:52:22Z</time>
      </trkpt>
      <trkpt lat="47.49735" lon="0.43078">
        <ele>108.77</ele>
        <time>2020-10-29T12:52:45Z</time>
      </trkpt>
      <trkpt lat="47.49756" lon="0.43048">
        <ele>109.25</ele>
        <time>2020-10-29T12:53:05Z</time>
      </trkpt>
      <trkpt lat="47.49776" lon="0.43019">
        <ele>109.73</ele>
        <time>2020-10-29T12:53:25Z</time>
      </trkpt>
      <trkpt lat="47.49797" lon="0.4299">
        <ele>110.21</ele>
        <time>2020-10-29T12:53:45Z</time>
      </trkpt>
      <trkpt lat="47.49811" lon="0.42968">
        <ele>110.69</ele>
        <time>2020-10-29T12:54:03Z</time>
      </trkpt>
      <trkpt lat="47.49826" lon="0.42945">
        <ele>110.69</ele>
        <time>2020-10-29T12:54:19Z</time>
      </trkpt>
      <trkpt lat="47.49848" lon="0.42917">
        <ele>111.17</ele>
        <time>2020-10-29T12:54:40Z</time>
      </trkpt>
      <trkpt lat="47.49859" lon="0.42905">
        <ele>111.17</ele>
        <time>2020-10-29T12:54:50Z</time>
      </trkpt>
      <trkpt lat="47.49875" lon="0.42873">
        <ele>111.65</ele>
        <time>2020-10-29T12:55:08Z</time>
      </trkpt>
      <trkpt lat="47.49879" lon="0.42863">
        <ele>112.13</ele>
        <time>2020-10-29T12:55:19Z</time>
      </trkpt>
      <trkpt lat="47.4988" lon="0.42861">
        <ele>112.13</ele>
        <time>2020-10-29T12:55:21Z</time>
      </trkpt>
      <trkpt lat="47.49872" lon="0.4287">
        <ele>112.13</ele>
        <time>2020-10-29T12:56:36Z</time>
      </trkpt>
      <trkpt lat="47.49852" lon="0.42875">
        <ele>110.69</ele>
        <time>2020-10-29T12:56:52Z</time>
      </trkpt>
      <trkpt lat="47.49841" lon="0.42874">
        <ele>109.25</ele>
        <time>2020-10-29T12:56:59Z</time>
      </trkpt>
      <trkpt lat="47.4981" lon="0.42885">
        <ele>110.21</ele>
        <time>2020-10-29T12:57:22Z</time>
      </trkpt>
      <trkpt lat="47.49782" lon="0.42891">
        <ele>109.25</ele>
        <time>2020-10-29T12:57:42Z</time>
      </trkpt>
      <trkpt lat="47.49752" lon="0.42896">
        <ele>109.73</ele>
        <time>2020-10-29T12:58:03Z</time>
      </trkpt>
      <trkpt lat="47.49716" lon="0.42902">
        <ele>108.77</ele>
        <time>2020-10-29T12:58:28Z</time>
      </trkpt>
      <trkpt lat="47.4968" lon="0.42907">
        <ele>108.77</ele>
        <time>2020-10-29T12:58:52Z</time>
      </trkpt>
      <trkpt lat="47.49644" lon="0.42914">
        <ele>108.29</ele>
        <time>2020-10-29T12:59:18Z</time>
      </trkpt>
      <trkpt lat="47.49604" lon="0.42919">
        <ele>108.77</ele>
        <time>2020-10-29T12:59:45Z</time>
      </trkpt>
      <trkpt lat="47.49581" lon="0.42921">
        <ele>108.77</ele>
        <time>2020-10-29T13:00:01Z</time>
      </trkpt>
      <trkpt lat="47.49564" lon="0.42924">
        <ele>107.81</ele>
        <time>2020-10-29T13:00:16Z</time>
      </trkpt>
      <trkpt lat="47.49533" lon="0.42927">
        <ele>108.77</ele>
        <time>2020-10-29T13:00:39Z</time>
      </trkpt>
      <trkpt lat="47.49532" lon="0.42928">
        <ele>108.77</ele>
        <time>2020-10-29T13:00:42Z</time>
      </trkpt>
      <trkpt lat="47.49499" lon="0.42932">
        <ele>108.29</ele>
        <time>2020-10-29T13:01:06Z</time>
      </trkpt>
      <trkpt lat="47.49465" lon="0.42941">
        <ele>108.77</ele>
        <time>2020-10-29T13:01:31Z</time>
      </trkpt>
      <trkpt lat="47.49431" lon="0.42947">
        <ele>107.32</ele>
        <time>2020-10-29T13:01:55Z</time>
      </trkpt>
      <trkpt lat="47.49393" lon="0.42952">
        <ele>107.81</ele>
        <time>2020-10-29T13:02:20Z</time>
      </trkpt>
      <trkpt lat="47.49354" lon="0.42958">
        <ele>107.81</ele>
        <time>2020-10-29T13:02:47Z</time>
      </trkpt>
      <trkpt lat="47.49319" lon="0.42963">
        <ele>107.32</ele>
        <time>2020-10-29T13:03:11Z</time>
      </trkpt>
      <trkpt lat="47.49304" lon="0.42966">
        <ele>107.81</ele>
        <time>2020-10-29T13:03:21Z</time>
      </trkpt>
      <trkpt lat="47.49274" lon="0.42965">
        <ele>107.32</ele>
        <time>2020-10-29T13:03:45Z</time>
      </trkpt>
      <trkpt lat="47.49271" lon="0.42969">
        <ele>107.32</ele>
        <time>2020-10-29T13:04:11Z</time>
      </trkpt>
      <trkpt lat="47.49261" lon="0.42974">
        <ele>107.81</ele>
        <time>2020-10-29T13:04:28Z</time>
      </trkpt>
      <trkpt lat="47.49224" lon="0.42976">
        <ele>106.84</ele>
        <time>2020-10-29T13:04:54Z</time>
      </trkpt>
      <trkpt lat="47.49194" lon="0.42983">
        <ele>105.88</ele>
        <time>2020-10-29T13:05:15Z</time>
      </trkpt>
      <trkpt lat="47.4916" lon="0.42987">
        <ele>104.92</ele>
        <time>2020-10-29T13:05:37Z</time>
      </trkpt>
      <trkpt lat="47.49124" lon="0.42992">
        <ele>104.92</ele>
        <time>2020-10-29T13:06:03Z</time>
      </trkpt>
      <trkpt lat="47.49109" lon="0.42994">
        <ele>105.4</ele>
        <time>2020-10-29T13:06:14Z</time>
      </trkpt>
      <trkpt lat="47.49074" lon="0.42991">
        <ele>104.44</ele>
        <time>2020-10-29T13:06:38Z</time>
      </trkpt>
      <trkpt lat="47.49036" lon="0.42981">
        <ele>103.96</ele>
        <time>2020-10-29T13:07:04Z</time>
      </trkpt>
      <trkpt lat="47.49005" lon="0.42964">
        <ele>103</ele>
        <time>2020-10-29T13:07:26Z</time>
      </trkpt>
      <trkpt lat="47.48981" lon="0.42942">
        <ele>103.48</ele>
        <time>2020-10-29T13:07:46Z</time>
      </trkpt>
      <trkpt lat="47.48961" lon="0.42919">
        <ele>103.48</ele>
        <time>2020-10-29T13:08:03Z</time>
      </trkpt>
      <trkpt lat="47.48939" lon="0.4289">
        <ele>104.92</ele>
        <time>2020-10-29T13:08:23Z</time>
      </trkpt>
      <trkpt lat="47.48917" lon="0.42864">
        <ele>104.44</ele>
        <time>2020-10-29T13:08:42Z</time>
      </trkpt>
      <trkpt lat="47.48889" lon="0.42837">
        <ele>105.4</ele>
        <time>2020-10-29T13:09:06Z</time>
      </trkpt>
      <trkpt lat="47.48862" lon="0.42816">
        <ele>105.4</ele>
        <time>2020-10-29T13:09:30Z</time>
      </trkpt>
      <trkpt lat="47.48838" lon="0.42784">
        <ele>105.88</ele>
        <time>2020-10-29T13:09:53Z</time>
      </trkpt>
      <trkpt lat="47.48817" lon="0.42756">
        <ele>106.36</ele>
        <time>2020-10-29T13:10:13Z</time>
      </trkpt>
      <trkpt lat="47.48797" lon="0.42735">
        <ele>105.88</ele>
        <time>2020-10-29T13:10:31Z</time>
      </trkpt>
      <trkpt lat="47.48776" lon="0.42709">
        <ele>107.81</ele>
        <time>2020-10-29T13:10:49Z</time>
      </trkpt>
      <trkpt lat="47.48772" lon="0.42702">
        <ele>106.36</ele>
        <time>2020-10-29T13:11:07Z</time>
      </trkpt>
      <trkpt lat="47.48766" lon="0.42696">
        <ele>106.36</ele>
        <time>2020-10-29T13:11:12Z</time>
      </trkpt>
      <trkpt lat="47.4874" lon="0.42667">
        <ele>107.32</ele>
        <time>2020-10-29T13:11:35Z</time>
      </trkpt>
      <trkpt lat="47.48735" lon="0.42664">
        <ele>108.29</ele>
        <time>2020-10-29T13:11:39Z</time>
      </trkpt>
      <trkpt lat="47.48707" lon="0.42641">
        <ele>109.25</ele>
        <time>2020-10-29T13:12:01Z</time>
      </trkpt>
      <trkpt lat="47.48681" lon="0.42618">
        <ele>108.29</ele>
        <time>2020-10-29T13:12:20Z</time>
      </trkpt>
      <trkpt lat="47.48661" lon="0.42608">
        <ele>108.29</ele>
        <time>2020-10-29T13:12:35Z</time>
      </trkpt>
      <trkpt lat="47.48631" lon="0.42578">
        <ele>108.77</ele>
        <time>2020-10-29T13:12:58Z</time>
      </trkpt>
      <trkpt lat="47.48604" lon="0.42552">
        <ele>109.73</ele>
        <time>2020-10-29T13:13:22Z</time>
      </trkpt>
      <trkpt lat="47.48587" lon="0.42533">
        <ele>108.77</ele>
        <time>2020-10-29T13:13:37Z</time>
      </trkpt>
      <trkpt lat="47.48577" lon="0.42521">
        <ele>109.73</ele>
        <time>2020-10-29T13:13:47Z</time>
      </trkpt>
      <trkpt lat="47.48557" lon="0.42494">
        <ele>108.77</ele>
        <time>2020-10-29T13:14:07Z</time>
      </trkpt>
      <trkpt lat="47.48527" lon="0.42471">
        <ele>108.77</ele>
        <time>2020-10-29T13:14:28Z</time>
      </trkpt>
      <trkpt lat="47.485" lon="0.42448">
        <ele>108.29</ele>
        <time>2020-10-29T13:14:49Z</time>
      </trkpt>
      <trkpt lat="47.48476" lon="0.4243">
        <ele>109.25</ele>
        <time>2020-10-29T13:15:07Z</time>
      </trkpt>
      <trkpt lat="47.48451" lon="0.42411">
        <ele>107.32</ele>
        <time>2020-10-29T13:15:27Z</time>
      </trkpt>
      <trkpt lat="47.4843" lon="0.42389">
        <ele>107.81</ele>
        <time>2020-10-29T13:15:45Z</time>
      </trkpt>
      <trkpt lat="47.48409" lon="0.42363">
        <ele>108.29</ele>
        <time>2020-10-29T13:16:04Z</time>
      </trkpt>
      <trkpt lat="47.48386" lon="0.42335">
        <ele>107.32</ele>
        <time>2020-10-29T13:16:25Z</time>
      </trkpt>
      <trkpt lat="47.48362" lon="0.42311">
        <ele>106.36</ele>
        <time>2020-10-29T13:16:45Z</time>
      </trkpt>
      <trkpt lat="47.48356" lon="0.42305">
        <ele>107.32</ele>
        <time>2020-10-29T13:17:03Z</time>
      </trkpt>
      <trkpt lat="47.48347" lon="0.42305">
        <ele>107.32</ele>
        <time>2020-10-29T13:17:23Z</time>
      </trkpt>
      <trkpt lat="47.48318" lon="0.42299">
        <ele>107.32</ele>
        <time>2020-10-29T13:17:41Z</time>
      </trkpt>
      <trkpt lat="47.48291" lon="0.42298">
        <ele>106.84</ele>
        <time>2020-10-29T13:18:00Z</time>
      </trkpt>
      <trkpt lat="47.48259" lon="0.423">
        <ele>107.81</ele>
        <time>2020-10-29T13:18:22Z</time>
      </trkpt>
      <trkpt lat="47.48232" lon="0.42297">
        <ele>107.32</ele>
        <time>2020-10-29T13:18:40Z</time>
      </trkpt>
      <trkpt lat="47.48207" lon="0.42301">
        <ele>107.32</ele>
        <time>2020-10-29T13:18:58Z</time>
      </trkpt>
      <trkpt lat="47.48181" lon="0.42308">
        <ele>107.81</ele>
        <time>2020-10-29T13:19:17Z</time>
      </trkpt>
      <trkpt lat="47.48152" lon="0.42308">
        <ele>108.29</ele>
        <time>2020-10-29T13:19:36Z</time>
      </trkpt>
      <trkpt lat="47.48127" lon="0.42312">
        <ele>107.32</ele>
        <time>2020-10-29T13:19:53Z</time>
      </trkpt>
      <trkpt lat="47.48102" lon="0.42312">
        <ele>107.81</ele>
        <time>2020-10-29T13:20:09Z</time>
      </trkpt>
      <trkpt lat="47.48073" lon="0.42317">
        <ele>108.29</ele>
        <time>2020-10-29T13:20:29Z</time>
      </trkpt>
      <trkpt lat="47.48053" lon="0.42335">
        <ele>108.29</ele>
        <time>2020-10-29T13:20:46Z</time>
      </trkpt>
      <trkpt lat="47.48045" lon="0.42343">
        <ele>107.81</ele>
        <time>2020-10-29T13:20:52Z</time>
      </trkpt>
      <trkpt lat="47.48027" lon="0.42373">
        <ele>108.29</ele>
        <time>2020-10-29T13:21:11Z</time>
      </trkpt>
      <trkpt lat="47.48004" lon="0.42403">
        <ele>108.29</ele>
        <time>2020-10-29T13:21:30Z</time>
      </trkpt>
      <trkpt lat="47.47984" lon="0.42429">
        <ele>108.29</ele>
        <time>2020-10-29T13:21:48Z</time>
      </trkpt>
      <trkpt lat="47.47961" lon="0.42457">
        <ele>107.32</ele>
        <time>2020-10-29T13:22:08Z</time>
      </trkpt>
      <trkpt lat="47.47941" lon="0.42484">
        <ele>107.32</ele>
        <time>2020-10-29T13:22:27Z</time>
      </trkpt>
      <trkpt lat="47.47918" lon="0.42509">
        <ele>107.81</ele>
        <time>2020-10-29T13:22:45Z</time>
      </trkpt>
      <trkpt lat="47.47902" lon="0.42539">
        <ele>108.29</ele>
        <time>2020-10-29T13:23:02Z</time>
      </trkpt>
      <trkpt lat="47.4788" lon="0.42568">
        <ele>107.32</ele>
        <time>2020-10-29T13:23:23Z</time>
      </trkpt>
      <trkpt lat="47.47857" lon="0.426">
        <ele>107.32</ele>
        <time>2020-10-29T13:23:44Z</time>
      </trkpt>
      <trkpt lat="47.47835" lon="0.42629">
        <ele>106.36</ele>
        <time>2020-10-29T13:24:04Z</time>
      </trkpt>
      <trkpt lat="47.47813" lon="0.42657">
        <ele>107.32</ele>
        <time>2020-10-29T13:24:23Z</time>
      </trkpt>
      <trkpt lat="47.47791" lon="0.42687">
        <ele>106.84</ele>
        <time>2020-10-29T13:24:45Z</time>
      </trkpt>
      <trkpt lat="47.47766" lon="0.4272">
        <ele>106.36</ele>
        <time>2020-10-29T13:25:07Z</time>
      </trkpt>
      <trkpt lat="47.47746" lon="0.42748">
        <ele>106.36</ele>
        <time>2020-10-29T13:25:25Z</time>
      </trkpt>
      <trkpt lat="47.47728" lon="0.42774">
        <ele>106.84</ele>
        <time>2020-10-29T13:25:43Z</time>
      </trkpt>
      <trkpt lat="47.47713" lon="0.42796">
        <ele>106.36</ele>
        <time>2020-10-29T13:25:58Z</time>
      </trkpt>
      <trkpt lat="47.47692" lon="0.42825">
        <ele>106.84</ele>
        <time>2020-10-29T13:26:17Z</time>
      </trkpt>
      <trkpt lat="47.47668" lon="0.42853">
        <ele>105.88</ele>
        <time>2020-10-29T13:26:38Z</time>
      </trkpt>
      <trkpt lat="47.47647" lon="0.42881">
        <ele>106.36</ele>
        <time>2020-10-29T13:26:57Z</time>
      </trkpt>
      <trkpt lat="47.47627" lon="0.42911">
        <ele>104.92</ele>
        <time>2020-10-29T13:27:16Z</time>
      </trkpt>
      <trkpt lat="47.47609" lon="0.42932">
        <ele>105.88</ele>
        <time>2020-10-29T13:27:33Z</time>
      </trkpt>
      <trkpt lat="47.47594" lon="0.42955">
        <ele>105.4</ele>
        <time>2020-10-29T13:27:47Z</time>
      </trkpt>
      <trkpt lat="47.47574" lon="0.42985">
        <ele>104.92</ele>
        <time>2020-10-29T13:28:07Z</time>
      </trkpt>
      <trkpt lat="47.47551" lon="0.43016">
        <ele>104.92</ele>
        <time>2020-10-29T13:28:28Z</time>
      </trkpt>
      <trkpt lat="47.4753" lon="0.43041">
        <ele>104.92</ele>
        <time>2020-10-29T13:28:45Z</time>
      </trkpt>
      <trkpt lat="47.4751" lon="0.43072">
        <ele>104.44</ele>
        <time>2020-10-29T13:29:05Z</time>
      </trkpt>
      <trkpt lat="47.4749" lon="0.43099">
        <ele>103.96</ele>
        <time>2020-10-29T13:29:23Z</time>
      </trkpt>
      <trkpt lat="47.47473" lon="0.4313">
        <ele>103.48</ele>
        <time>2020-10-29T13:29:41Z</time>
      </trkpt>
      <trkpt lat="47.47469" lon="0.43139">
        <ele>103.48</ele>
        <time>2020-10-29T13:29:49Z</time>
      </trkpt>
      <trkpt lat="47.47471" lon="0.43146">
        <ele>103.48</ele>
        <time>2020-10-29T13:30:03Z</time>
      </trkpt>
      <trkpt lat="47.47472" lon="0.43149">
        <ele>103.48</ele>
        <time>2020-10-29T13:30:16Z</time>
      </trkpt>
      <trkpt lat="47.47471" lon="0.4315">
        <ele>103.48</ele>
        <time>2020-10-29T13:30:18Z</time>
      </trkpt>
      <trkpt lat="47.47463" lon="0.43149">
        <ele>103.48</ele>
        <time>2020-10-29T13:30:22Z</time>
      </trkpt>
      <trkpt lat="47.47438" lon="0.43148">
        <ele>102.52</ele>
        <time>2020-10-29T13:30:40Z</time>
      </trkpt>
      <trkpt lat="47.47403" lon="0.43138">
        <ele>102.52</ele>
        <time>2020-10-29T13:31:04Z</time>
      </trkpt>
      <trkpt lat="47.47368" lon="0.43132">
        <ele>102.04</ele>
        <time>2020-10-29T13:31:28Z</time>
      </trkpt>
      <trkpt lat="47.47342" lon="0.43127">
        <ele>101.08</ele>
        <time>2020-10-29T13:31:48Z</time>
      </trkpt>
      <trkpt lat="47.47306" lon="0.43127">
        <ele>102.04</ele>
        <time>2020-10-29T13:32:13Z</time>
      </trkpt>
      <trkpt lat="47.47269" lon="0.43131">
        <ele>102.04</ele>
        <time>2020-10-29T13:32:40Z</time>
      </trkpt>
      <trkpt lat="47.47245" lon="0.43141">
        <ele>101.56</ele>
        <time>2020-10-29T13:32:57Z</time>
      </trkpt>
      <trkpt lat="47.47219" lon="0.43164">
        <ele>100.6</ele>
        <time>2020-10-29T13:33:19Z</time>
      </trkpt>
      <trkpt lat="47.47212" lon="0.43167">
        <ele>98.67</ele>
        <time>2020-10-29T13:33:24Z</time>
      </trkpt>
      <trkpt lat="47.4721" lon="0.43169">
        <ele>100.6</ele>
        <time>2020-10-29T13:33:26Z</time>
      </trkpt>
      <trkpt lat="47.47185" lon="0.43195">
        <ele>100.6</ele>
        <time>2020-10-29T13:33:47Z</time>
      </trkpt>
      <trkpt lat="47.47164" lon="0.43222">
        <ele>101.08</ele>
        <time>2020-10-29T13:34:07Z</time>
      </trkpt>
      <trkpt lat="47.47139" lon="0.43256">
        <ele>100.11</ele>
        <time>2020-10-29T13:34:30Z</time>
      </trkpt>
      <trkpt lat="47.4712" lon="0.43287">
        <ele>103.96</ele>
        <time>2020-10-29T13:34:47Z</time>
      </trkpt>
      <trkpt lat="47.47119" lon="0.43288">
        <ele>100.11</ele>
        <time>2020-10-29T13:34:48Z</time>
      </trkpt>
      <trkpt lat="47.47101" lon="0.43311">
        <ele>100.6</ele>
        <time>2020-10-29T13:35:03Z</time>
      </trkpt>
      <trkpt lat="47.47085" lon="0.43331">
        <ele>99.63</ele>
        <time>2020-10-29T13:35:17Z</time>
      </trkpt>
      <trkpt lat="47.47075" lon="0.43338">
        <ele>100.11</ele>
        <time>2020-10-29T13:35:34Z</time>
      </trkpt>
      <trkpt lat="47.47075" lon="0.4334">
        <ele>99.63</ele>
        <time>2020-10-29T13:35:41Z</time>
      </trkpt>
      <trkpt lat="47.4706" lon="0.43351">
        <ele>99.63</ele>
        <time>2020-10-29T13:38:20Z</time>
      </trkpt>
      <trkpt lat="47.47039" lon="0.4337">
        <ele>99.63</ele>
        <time>2020-10-29T13:38:41Z</time>
      </trkpt>
      <trkpt lat="47.47005" lon="0.4338">
        <ele>98.67</ele>
        <time>2020-10-29T13:39:07Z</time>
      </trkpt>
      <trkpt lat="47.46969" lon="0.43389">
        <ele>98.19</ele>
        <time>2020-10-29T13:39:32Z</time>
      </trkpt>
      <trkpt lat="47.4693" lon="0.43393">
        <ele>97.23</ele>
        <time>2020-10-29T13:39:55Z</time>
      </trkpt>
      <trkpt lat="47.46899" lon="0.43394">
        <ele>97.23</ele>
        <time>2020-10-29T13:40:18Z</time>
      </trkpt>
      <trkpt lat="47.46865" lon="0.43401">
        <ele>96.27</ele>
        <time>2020-10-29T13:40:40Z</time>
      </trkpt>
      <trkpt lat="47.46828" lon="0.43408">
        <ele>95.79</ele>
        <time>2020-10-29T13:41:03Z</time>
      </trkpt>
      <trkpt lat="47.46811" lon="0.43411">
        <ele>95.79</ele>
        <time>2020-10-29T13:41:18Z</time>
      </trkpt>
      <trkpt lat="47.46791" lon="0.43412">
        <ele>94.35</ele>
        <time>2020-10-29T13:41:32Z</time>
      </trkpt>
      <trkpt lat="47.46769" lon="0.4342">
        <ele>93.87</ele>
        <time>2020-10-29T13:41:50Z</time>
      </trkpt>
      <trkpt lat="47.46745" lon="0.43425">
        <ele>94.35</ele>
        <time>2020-10-29T13:42:05Z</time>
      </trkpt>
      <trkpt lat="47.46723" lon="0.43425">
        <ele>93.39</ele>
        <time>2020-10-29T13:42:22Z</time>
      </trkpt>
      <trkpt lat="47.46702" lon="0.43411">
        <ele>92.42</ele>
        <time>2020-10-29T13:42:39Z</time>
      </trkpt>
      <trkpt lat="47.46668" lon="0.43394">
        <ele>92.42</ele>
        <time>2020-10-29T13:43:01Z</time>
      </trkpt>
      <trkpt lat="47.46643" lon="0.43396">
        <ele>91.46</ele>
        <time>2020-10-29T13:43:18Z</time>
      </trkpt>
      <trkpt lat="47.46633" lon="0.43388">
        <ele>91.94</ele>
        <time>2020-10-29T13:43:34Z</time>
      </trkpt>
      <trkpt lat="47.46625" lon="0.43391">
        <ele>91.46</ele>
        <time>2020-10-29T13:43:40Z</time>
      </trkpt>
      <trkpt lat="47.46607" lon="0.43417">
        <ele>92.42</ele>
        <time>2020-10-29T13:43:59Z</time>
      </trkpt>
      <trkpt lat="47.46594" lon="0.43446">
        <ele>92.9</ele>
        <time>2020-10-29T13:44:19Z</time>
      </trkpt>
      <trkpt lat="47.46583" lon="0.43467">
        <ele>93.39</ele>
        <time>2020-10-29T13:44:35Z</time>
      </trkpt>
      <trkpt lat="47.4656" lon="0.43497">
        <ele>93.87</ele>
        <time>2020-10-29T13:44:53Z</time>
      </trkpt>
      <trkpt lat="47.46535" lon="0.43533">
        <ele>94.35</ele>
        <time>2020-10-29T13:45:11Z</time>
      </trkpt>
      <trkpt lat="47.46518" lon="0.43564">
        <ele>94.35</ele>
        <time>2020-10-29T13:45:28Z</time>
      </trkpt>
      <trkpt lat="47.46495" lon="0.43611">
        <ele>94.35</ele>
        <time>2020-10-29T13:45:54Z</time>
      </trkpt>
      <trkpt lat="47.46467" lon="0.4365">
        <ele>95.31</ele>
        <time>2020-10-29T13:46:20Z</time>
      </trkpt>
      <trkpt lat="47.46452" lon="0.43671">
        <ele>95.79</ele>
        <time>2020-10-29T13:46:35Z</time>
      </trkpt>
      <trkpt lat="47.4643" lon="0.43701">
        <ele>95.79</ele>
        <time>2020-10-29T13:46:55Z</time>
      </trkpt>
      <trkpt lat="47.46408" lon="0.43738">
        <ele>96.27</ele>
        <time>2020-10-29T13:47:18Z</time>
      </trkpt>
      <trkpt lat="47.46394" lon="0.43765">
        <ele>96.75</ele>
        <time>2020-10-29T13:47:34Z</time>
      </trkpt>
      <trkpt lat="47.46375" lon="0.43793">
        <ele>96.75</ele>
        <time>2020-10-29T13:47:53Z</time>
      </trkpt>
      <trkpt lat="47.46356" lon="0.43838">
        <ele>96.75</ele>
        <time>2020-10-29T13:48:18Z</time>
      </trkpt>
      <trkpt lat="47.46344" lon="0.43887">
        <ele>95.79</ele>
        <time>2020-10-29T13:48:42Z</time>
      </trkpt>
      <trkpt lat="47.46332" lon="0.43928">
        <ele>96.27</ele>
        <time>2020-10-29T13:49:05Z</time>
      </trkpt>
      <trkpt lat="47.46325" lon="0.43945">
        <ele>95.79</ele>
        <time>2020-10-29T13:49:22Z</time>
      </trkpt>
      <trkpt lat="47.46308" lon="0.43993">
        <ele>95.79</ele>
        <time>2020-10-29T13:49:45Z</time>
      </trkpt>
      <trkpt lat="47.46287" lon="0.44032">
        <ele>95.31</ele>
        <time>2020-10-29T13:50:07Z</time>
      </trkpt>
      <trkpt lat="47.46259" lon="0.4406">
        <ele>95.31</ele>
        <time>2020-10-29T13:50:31Z</time>
      </trkpt>
      <trkpt lat="47.4625" lon="0.44065">
        <ele>95.79</ele>
        <time>2020-10-29T13:50:45Z</time>
      </trkpt>
      <trkpt lat="47.46208" lon="0.44067">
        <ele>94.35</ele>
        <time>2020-10-29T13:51:12Z</time>
      </trkpt>
      <trkpt lat="47.46184" lon="0.44062">
        <ele>95.31</ele>
        <time>2020-10-29T13:51:30Z</time>
      </trkpt>
      <trkpt lat="47.46145" lon="0.44045">
        <ele>94.83</ele>
        <time>2020-10-29T13:51:59Z</time>
      </trkpt>
      <trkpt lat="47.46115" lon="0.44027">
        <ele>93.39</ele>
        <time>2020-10-29T13:52:20Z</time>
      </trkpt>
      <trkpt lat="47.46081" lon="0.44021">
        <ele>92.42</ele>
        <time>2020-10-29T13:52:42Z</time>
      </trkpt>
      <trkpt lat="47.46061" lon="0.44014">
        <ele>91.94</ele>
        <time>2020-10-29T13:52:56Z</time>
      </trkpt>
      <trkpt lat="47.46035" lon="0.44015">
        <ele>91.46</ele>
        <time>2020-10-29T13:53:12Z</time>
      </trkpt>
      <trkpt lat="47.46011" lon="0.44023">
        <ele>92.9</ele>
        <time>2020-10-29T13:53:31Z</time>
      </trkpt>
      <trkpt lat="47.45981" lon="0.44037">
        <ele>94.35</ele>
        <time>2020-10-29T13:53:52Z</time>
      </trkpt>
      <trkpt lat="47.45954" lon="0.44058">
        <ele>95.31</ele>
        <time>2020-10-29T13:54:14Z</time>
      </trkpt>
      <trkpt lat="47.45934" lon="0.44075">
        <ele>95.31</ele>
        <time>2020-10-29T13:54:31Z</time>
      </trkpt>
      <trkpt lat="47.45912" lon="0.44099">
        <ele>96.75</ele>
        <time>2020-10-29T13:54:51Z</time>
      </trkpt>
      <trkpt lat="47.45888" lon="0.44121">
        <ele>97.23</ele>
        <time>2020-10-29T13:55:09Z</time>
      </trkpt>
      <trkpt lat="47.45862" lon="0.44145">
        <ele>97.71</ele>
        <time>2020-10-29T13:55:29Z</time>
      </trkpt>
      <trkpt lat="47.45835" lon="0.44171">
        <ele>97.71</ele>
        <time>2020-10-29T13:55:50Z</time>
      </trkpt>
      <trkpt lat="47.45811" lon="0.44189">
        <ele>97.71</ele>
        <time>2020-10-29T13:56:10Z</time>
      </trkpt>
      <trkpt lat="47.45786" lon="0.44198">
        <ele>97.71</ele>
        <time>2020-10-29T13:56:28Z</time>
      </trkpt>
      <trkpt lat="47.45755" lon="0.4421">
        <ele>97.71</ele>
        <time>2020-10-29T13:56:47Z</time>
      </trkpt>
      <trkpt lat="47.45725" lon="0.44212">
        <ele>97.71</ele>
        <time>2020-10-29T13:57:07Z</time>
      </trkpt>
      <trkpt lat="47.45704" lon="0.44209">
        <ele>98.19</ele>
        <time>2020-10-29T13:57:25Z</time>
      </trkpt>
      <trkpt lat="47.45679" lon="0.44204">
        <ele>97.71</ele>
        <time>2020-10-29T13:57:43Z</time>
      </trkpt>
      <trkpt lat="47.45658" lon="0.44199">
        <ele>98.19</ele>
        <time>2020-10-29T13:57:58Z</time>
      </trkpt>
      <trkpt lat="47.45641" lon="0.44213">
        <ele>98.19</ele>
        <time>2020-10-29T13:58:15Z</time>
      </trkpt>
      <trkpt lat="47.45642" lon="0.44244">
        <ele>98.19</ele>
        <time>2020-10-29T13:58:30Z</time>
      </trkpt>
      <trkpt lat="47.45651" lon="0.44293">
        <ele>97.23</ele>
        <time>2020-10-29T13:58:54Z</time>
      </trkpt>
      <trkpt lat="47.45661" lon="0.44337">
        <ele>97.23</ele>
        <time>2020-10-29T13:59:15Z</time>
      </trkpt>
      <trkpt lat="47.45672" lon="0.44379">
        <ele>96.27</ele>
        <time>2020-10-29T13:59:36Z</time>
      </trkpt>
      <trkpt lat="47.45683" lon="0.44418">
        <ele>96.27</ele>
        <time>2020-10-29T13:59:55Z</time>
      </trkpt>
      <trkpt lat="47.45693" lon="0.44454">
        <ele>95.79</ele>
        <time>2020-10-29T14:00:12Z</time>
      </trkpt>
      <trkpt lat="47.45695" lon="0.44462">
        <ele>95.79</ele>
        <time>2020-10-29T14:00:16Z</time>
      </trkpt>
      <trkpt lat="47.45686" lon="0.44466">
        <ele>95.79</ele>
        <time>2020-10-29T14:00:22Z</time>
      </trkpt>
      <trkpt lat="47.45666" lon="0.44474">
        <ele>95.31</ele>
        <time>2020-10-29T14:00:39Z</time>
      </trkpt>
      <trkpt lat="47.45646" lon="0.44484">
        <ele>94.83</ele>
        <time>2020-10-29T14:00:56Z</time>
      </trkpt>
      <trkpt lat="47.45621" lon="0.44489">
        <ele>94.83</ele>
        <time>2020-10-29T14:01:13Z</time>
      </trkpt>
      <trkpt lat="47.45605" lon="0.44487">
        <ele>94.83</ele>
        <time>2020-10-29T14:01:26Z</time>
      </trkpt>
      <trkpt lat="47.45582" lon="0.44484">
        <ele>94.83</ele>
        <time>2020-10-29T14:01:43Z</time>
      </trkpt>
      <trkpt lat="47.45554" lon="0.44486">
        <ele>94.35</ele>
        <time>2020-10-29T14:02:02Z</time>
      </trkpt>
      <trkpt lat="47.45524" lon="0.44486">
        <ele>94.35</ele>
        <time>2020-10-29T14:02:21Z</time>
      </trkpt>
      <trkpt lat="47.45498" lon="0.4449">
        <ele>94.83</ele>
        <time>2020-10-29T14:02:39Z</time>
      </trkpt>
      <trkpt lat="47.45497" lon="0.44491">
        <ele>94.83</ele>
        <time>2020-10-29T14:02:40Z</time>
      </trkpt>
      <trkpt lat="47.45492" lon="0.44515">
        <ele>94.35</ele>
        <time>2020-10-29T14:02:54Z</time>
      </trkpt>
      <trkpt lat="47.45491" lon="0.44523">
        <ele>94.35</ele>
        <time>2020-10-29T14:02:58Z</time>
      </trkpt>
      <trkpt lat="47.45489" lon="0.44535">
        <ele>94.83</ele>
        <time>2020-10-29T14:03:03Z</time>
      </trkpt>
      <trkpt lat="47.45478" lon="0.44541">
        <ele>94.83</ele>
        <time>2020-10-29T14:03:11Z</time>
      </trkpt>
      <trkpt lat="47.45454" lon="0.44552">
        <ele>94.83</ele>
        <time>2020-10-29T14:03:28Z</time>
      </trkpt>
      <trkpt lat="47.45435" lon="0.44577">
        <ele>95.31</ele>
        <time>2020-10-29T14:03:46Z</time>
      </trkpt>
      <trkpt lat="47.45415" lon="0.44604">
        <ele>96.27</ele>
        <time>2020-10-29T14:04:01Z</time>
      </trkpt>
      <trkpt lat="47.45401" lon="0.44618">
        <ele>96.27</ele>
        <time>2020-10-29T14:04:17Z</time>
      </trkpt>
      <trkpt lat="47.45396" lon="0.44624">
        <ele>96.75</ele>
        <time>2020-10-29T14:04:23Z</time>
      </trkpt>
      <trkpt lat="47.45376" lon="0.44649">
        <ele>97.23</ele>
        <time>2020-10-29T14:04:37Z</time>
      </trkpt>
      <trkpt lat="47.45353" lon="0.44681">
        <ele>97.71</ele>
        <time>2020-10-29T14:04:53Z</time>
      </trkpt>
      <trkpt lat="47.45345" lon="0.44691">
        <ele>98.67</ele>
        <time>2020-10-29T14:05:06Z</time>
      </trkpt>
      <trkpt lat="47.45329" lon="0.44712">
        <ele>99.15</ele>
        <time>2020-10-29T14:05:19Z</time>
      </trkpt>
      <trkpt lat="47.45312" lon="0.44736">
        <ele>99.63</ele>
        <time>2020-10-29T14:05:32Z</time>
      </trkpt>
      <trkpt lat="47.45304" lon="0.44744">
        <ele>100.11</ele>
        <time>2020-10-29T14:05:44Z</time>
      </trkpt>
      <trkpt lat="47.45279" lon="0.44775">
        <ele>100.6</ele>
        <time>2020-10-29T14:05:59Z</time>
      </trkpt>
      <trkpt lat="47.45272" lon="0.44786">
        <ele>100.11</ele>
        <time>2020-10-29T14:06:05Z</time>
      </trkpt>
      <trkpt lat="47.45267" lon="0.44798">
        <ele>100.11</ele>
        <time>2020-10-29T14:06:19Z</time>
      </trkpt>
      <trkpt lat="47.45266" lon="0.448">
        <ele>100.11</ele>
        <time>2020-10-29T14:06:21Z</time>
      </trkpt>
      <trkpt lat="47.45266" lon="0.44806">
        <ele>99.63</ele>
        <time>2020-10-29T14:06:24Z</time>
      </trkpt>
      <trkpt lat="47.45265" lon="0.44812">
        <ele>99.63</ele>
        <time>2020-10-29T14:06:27Z</time>
      </trkpt>
      <trkpt lat="47.4525" lon="0.44841">
        <ele>99.63</ele>
        <time>2020-10-29T14:06:39Z</time>
      </trkpt>
      <trkpt lat="47.45244" lon="0.4484">
        <ele>100.11</ele>
        <time>2020-10-29T14:06:43Z</time>
      </trkpt>
      <trkpt lat="47.45234" lon="0.44818">
        <ele>100.11</ele>
        <time>2020-10-29T14:06:56Z</time>
      </trkpt>
      <trkpt lat="47.45232" lon="0.44816">
        <ele>99.63</ele>
        <time>2020-10-29T14:06:58Z</time>
      </trkpt>
      <trkpt lat="47.4518" lon="0.44745">
        <ele>98.8</ele>
      </trkpt>
      <trkpt lat="47.45172" lon="0.44731">
        <ele>98.7</ele>
      </trkpt>
      <trkpt lat="47.45168" lon="0.44741">
        <ele>98.9</ele>
      </trkpt>
      <trkpt lat="47.4512" lon="0.44873">
        <ele>99</ele>
      </trkpt>
      <trkpt lat="47.45091" lon="0.45038">
        <ele>98.5</ele>
      </trkpt>
      <trkpt lat="47.45072" lon="0.45035">
        <ele>98.4</ele>
      </trkpt>
      <trkpt lat="47.45065" lon="0.45031">
        <ele>98.4</ele>
      </trkpt>
      <trkpt lat="47.45019" lon="0.44994">
        <ele>98.8</ele>
      </trkpt>
      <trkpt lat="47.45005" lon="0.44979">
        <ele>99</ele>
      </trkpt>
      <trkpt lat="47.44964" lon="0.44932">
        <ele>98.6</ele>
      </trkpt>
      <trkpt lat="47.44949" lon="0.44912">
        <ele>98.4</ele>
      </trkpt>
      <trkpt lat="47.44914" lon="0.44853">
        <ele>98.8</ele>
      </trkpt>
      <trkpt lat="47.4487" lon="0.4479">
        <ele>99</ele>
      </trkpt>
      <trkpt lat="47.44833" lon="0.4479">
        <ele>99</ele>
      </trkpt>
      <trkpt lat="47.44822" lon="0.44792">
        <ele>98.8</ele>
      </trkpt>
      <trkpt lat="47.44797" lon="0.4481">
        <ele>98.2</ele>
      </trkpt>
      <trkpt lat="47.44656" lon="0.44914">
        <ele>97.9</ele>
      </trkpt>
      <trkpt lat="47.44495" lon="0.4501">
        <ele>97.8</ele>
      </trkpt>
      <trkpt lat="47.44414" lon="0.45052">
        <ele>97.6</ele>
      </trkpt>
      <trkpt lat="47.44392" lon="0.45048">
        <ele>97.6</ele>
      </trkpt>
      <trkpt lat="47.44381" lon="0.45043">
        <ele>97.5</ele>
      </trkpt>
      <trkpt lat="47.44371" lon="0.45006">
        <ele>97.1</ele>
      </trkpt>
      <trkpt lat="47.44358" lon="0.4498">
        <ele>97</ele>
      </trkpt>
      <trkpt lat="47.44345" lon="0.4497">
        <ele>97</ele>
      </trkpt>
      <trkpt lat="47.44262" lon="0.44965">
        <ele>96.6</ele>
      </trkpt>
      <trkpt lat="47.44164" lon="0.44974">
        <ele>97.3</ele>
      </trkpt>
      <trkpt lat="47.44054" lon="0.45017">
        <ele>97.3</ele>
      </trkpt>
      <trkpt lat="47.44044" lon="0.44913">
        <ele>97.4</ele>
      </trkpt>
      <trkpt lat="47.44044" lon="0.44889">
        <ele>97.2</ele>
      </trkpt>
      <trkpt lat="47.44059" lon="0.44846">
        <ele>96.8</ele>
      </trkpt>
      <trkpt lat="47.44069" lon="0.44788">
        <ele>97.4</ele>
      </trkpt>
      <trkpt lat="47.44076" lon="0.44774">
        <ele>97.6</ele>
      </trkpt>
      <trkpt lat="47.44091" lon="0.44764">
        <ele>97.8</ele>
      </trkpt>
      <trkpt lat="47.44118" lon="0.44756">
        <ele>98</ele>
      </trkpt>
      <trkpt lat="47.44125" lon="0.44744">
        <ele>97.9</ele>
      </trkpt>
      <trkpt lat="47.44129" lon="0.44684">
        <ele>97.2</ele>
      </trkpt>
      <trkpt lat="47.44119" lon="0.44629">
        <ele>97.3</ele>
      </trkpt>
      <trkpt lat="47.44094" lon="0.44318">
        <ele>99.8</ele>
      </trkpt>
      <trkpt lat="47.44095" lon="0.44298">
        <ele>99.6</ele>
      </trkpt>
      <trkpt lat="47.44125" lon="0.44302">
        <ele>99.6</ele>
      </trkpt>
      <trkpt lat="47.44158" lon="0.443">
        <ele>99.6</ele>
      </trkpt>
      <trkpt lat="47.44183" lon="0.44304">
        <ele>99.4</ele>
      </trkpt>
      <trkpt lat="47.44196" lon="0.44311">
        <ele>99.4</ele>
      </trkpt>
      <trkpt lat="47.44221" lon="0.44334">
        <ele>99.4</ele>
      </trkpt>
      <trkpt lat="47.44328" lon="0.44451">
        <ele>97.1</ele>
      </trkpt>
      <trkpt lat="47.44355" lon="0.44475">
        <ele>97.6</ele>
      </trkpt>
      <trkpt lat="47.44378" lon="0.44485">
        <ele>98.2</ele>
      </trkpt>
      <trkpt lat="47.44464" lon="0.44514">
        <ele>98.8</ele>
      </trkpt>
      <trkpt lat="47.44488" lon="0.44525">
        <ele>98.5</ele>
      </trkpt>
      <trkpt lat="47.44533" lon="0.44554">
        <ele>97.6</ele>
      </trkpt>
      <trkpt lat="47.44549" lon="0.44562">
        <ele>97.4</ele>
      </trkpt>
      <trkpt lat="47.44564" lon="0.44568">
        <ele>97.2</ele>
      </trkpt>
      <trkpt lat="47.44587" lon="0.44573">
        <ele>97.1</ele>
      </trkpt>
      <trkpt lat="47.44633" lon="0.44581">
        <ele>97</ele>
      </trkpt>
      <trkpt lat="47.44646" lon="0.44585">
        <ele>97</ele>
      </trkpt>
      <trkpt lat="47.44678" lon="0.44599">
        <ele>97.2</ele>
      </trkpt>
      <trkpt lat="47.44709" lon="0.4462">
        <ele>97.8</ele>
      </trkpt>
      <trkpt lat="47.44748" lon="0.44569">
        <ele>99</ele>
      </trkpt>
      <trkpt lat="47.44864" lon="0.4441">
        <ele>97.9</ele>
      </trkpt>
      <trkpt lat="47.44885" lon="0.44438">
        <ele>98.3</ele>
      </trkpt>
      <trkpt lat="47.44898" lon="0.44459">
        <ele>98.5</ele>
      </trkpt>
      <trkpt lat="47.44952" lon="0.44548">
        <ele>98.6</ele>
      </trkpt>
      <trkpt lat="47.44967" lon="0.44541">
        <ele>98.4</ele>
      </trkpt>
      <trkpt lat="47.44978" lon="0.44539">
        <ele>98.3</ele>
      </trkpt>
      <trkpt lat="47.45006" lon="0.44567">
        <ele>98</ele>
      </trkpt>
      <trkpt lat="47.45035" lon="0.44606">
        <ele>98.7</ele>
      </trkpt>
      <trkpt lat="47.4506" lon="0.44576">
        <ele>98.6</ele>
      </trkpt>
      <trkpt lat="47.45078" lon="0.44558">
        <ele>98.4</ele>
      </trkpt>
      <trkpt lat="47.45134" lon="0.44508">
        <ele>97.7</ele>
      </trkpt>
      <trkpt lat="47.4515" lon="0.44506">
        <ele>97.8</ele>
      </trkpt>
      <trkpt lat="47.45158" lon="0.4451">
        <ele>97.9</ele>
      </trkpt>
      <trkpt lat="47.45169" lon="0.44517">
        <ele>98</ele>
      </trkpt>
      <trkpt lat="47.45167" lon="0.44531">
        <ele>98</ele>
      </trkpt>
      <trkpt lat="47.45168" lon="0.44544">
        <ele>98</ele>
      </trkpt>
      <trkpt lat="47.45173" lon="0.44565">
        <ele>97.9</ele>
      </trkpt>
      <trkpt lat="47.45186" lon="0.44604">
        <ele>97.8</ele>
      </trkpt>
      <trkpt lat="47.45189" lon="0.44636">
        <ele>97.9</ele>
      </trkpt>
      <trkpt lat="47.45186" lon="0.44676">
        <ele>98.1</ele>
      </trkpt>
      <trkpt lat="47.45172" lon="0.44731">
        <ele>98.7</ele>
      </trkpt>
    </trkseg>
  </trk>
</gpx>